Time,TemperatureF,DewpointF,PressureIn,WindDirection,WindDirectionDegrees,WindSpeedMPH,WindSpeedGustMPH,Humidity,HourlyPrecipIn,Conditions,Clouds,dailyrainin,SoftwareType,DateUTC
2013-02-08 00:00:00,71.6,63.0,29.96,WSW,253,5.6,5.6,73,0.00,,,0.00,TxWx,2013-02-08 05:00:00,
2013-02-08 00:02:00,71.6,63.0,29.96,West,276,5.6,5.6,73,0.00,,,0.00,TxWx,2013-02-08 05:02:00,
2013-02-08 00:05:00,71.5,63.0,29.96,SSW,208,3.1,4.3,73,0.00,,,0.00,TxWx,2013-02-08 05:05:00,
2013-02-08 00:07:00,71.6,63.0,29.96,WSW,253,3.7,4.3,73,0.00,,,0.00,TxWx,2013-02-08 05:07:00,
2013-02-08 00:10:00,71.6,63.0,29.95,South,186,3.7,3.7,74,0.00,,,0.00,TxWx,2013-02-08 05:10:00,
2013-02-08 00:11:00,71.6,63.0,29.95,South,186,1.9,2.5,74,0.00,,,0.00,TxWx,2013-02-08 05:11:00,
2013-02-08 00:14:00,71.5,62.0,29.95,WNW,298,3.1,3.7,73,0.00,,,0.00,TxWx,2013-02-08 05:14:00,
2013-02-08 00:15:00,71.4,62.0,29.94,SSW,208,3.7,3.7,73,0.00,,,0.00,TxWx,2013-02-08 05:15:00,
2013-02-08 00:17:00,71.4,62.0,29.94,WSW,253,4.3,4.3,73,0.00,,,0.00,TxWx,2013-02-08 05:17:00,
2013-02-08 00:20:00,71.4,62.0,29.94,South,186,3.1,3.1,74,0.00,,,0.00,TxWx,2013-02-08 05:20:00,
2013-02-08 00:23:00,71.5,62.0,29.94,SW,231,2.5,2.5,74,0.00,,,0.00,TxWx,2013-02-08 05:23:00,
2013-02-08 00:25:00,71.5,62.0,29.94,WSW,253,1.2,1.9,74,0.00,,,0.00,TxWx,2013-02-08 05:25:00,
2013-02-08 00:26:00,71.5,62.0,29.94,South,186,1.2,1.9,74,0.00,,,0.00,TxWx,2013-02-08 05:26:00,
2013-02-08 00:29:00,71.5,62.0,29.94,SW,231,1.9,1.9,74,0.00,,,0.00,TxWx,2013-02-08 05:29:00,
2013-02-08 00:31:00,71.3,62.0,29.94,SSW,208,2.5,2.5,74,0.00,,,0.00,TxWx,2013-02-08 05:31:00,
2013-02-08 00:34:00,71.2,62.0,29.93,SE,141,4.3,5.0,74,0.00,,,0.00,TxWx,2013-02-08 05:34:00,
2013-02-08 00:35:00,71.2,62.0,29.93,South,186,4.3,4.3,74,0.00,,,0.00,TxWx,2013-02-08 05:35:00,
2013-02-08 00:37:00,71.2,62.0,29.93,South,186,1.9,2.5,74,0.00,,,0.00,TxWx,2013-02-08 05:37:00,
2013-02-08 00:40:00,71.2,62.0,29.93,SSW,208,2.5,3.1,75,0.00,,,0.00,TxWx,2013-02-08 05:40:00,
2013-02-08 00:41:00,71.2,62.0,29.94,WSW,253,0.6,0.6,75,0.00,,,0.00,TxWx,2013-02-08 05:41:00,
2013-02-08 00:42:00,71.2,62.0,29.94,WSW,253,3.1,3.1,75,0.00,,,0.00,TxWx,2013-02-08 05:42:00,
2013-02-08 00:45:00,71.2,63.0,29.94,WSW,253,3.7,3.7,76,0.00,,,0.00,TxWx,2013-02-08 05:45:00,
2013-02-08 00:48:00,71.1,63.0,29.95,WSW,253,6.2,6.8,76,0.00,,,0.00,TxWx,2013-02-08 05:48:00,
2013-02-08 00:49:00,71.1,63.0,29.95,West,276,5.6,5.6,76,0.00,,,0.00,TxWx,2013-02-08 05:49:00,
2013-02-08 00:50:00,71.1,63.0,29.95,SW,231,4.3,4.3,76,0.00,,,0.00,TxWx,2013-02-08 05:50:00,
2013-02-08 00:54:00,71.1,63.0,29.94,SW,231,1.2,1.9,76,0.00,,,0.00,TxWx,2013-02-08 05:54:00,
2013-02-08 00:55:00,71.1,63.0,29.94,SW,231,1.9,1.9,75,0.00,,,0.00,TxWx,2013-02-08 05:55:00,
2013-02-08 00:56:00,71.0,63.0,29.94,South,186,3.1,3.1,75,0.00,,,0.00,TxWx,2013-02-08 05:56:00,
2013-02-08 01:00:00,70.9,63.0,29.94,SW,231,1.2,1.9,75,0.00,,,0.00,TxWx,2013-02-08 06:00:00,
2013-02-08 01:01:00,70.9,63.0,29.94,SSW,208,2.5,3.1,76,0.00,,,0.00,TxWx,2013-02-08 06:01:00,
2013-02-08 01:06:00,71.0,63.0,29.94,WSW,253,3.7,3.7,77,0.00,,,0.00,TxWx,2013-02-08 06:06:00,
2013-02-08 01:07:00,70.9,63.0,29.94,WSW,253,3.7,4.3,77,0.00,,,0.00,TxWx,2013-02-08 06:07:00,
2013-02-08 01:11:00,70.7,63.0,29.95,WSW,253,4.3,4.3,77,0.00,,,0.00,TxWx,2013-02-08 06:11:00,
2013-02-08 01:12:00,70.7,63.0,29.95,SW,231,3.7,5.0,77,0.00,,,0.00,TxWx,2013-02-08 06:12:00,
2013-02-08 01:14:00,70.5,63.0,29.95,WSW,253,6.8,6.8,77,0.00,,,0.00,TxWx,2013-02-08 06:14:00,
2013-02-08 01:18:00,70.5,63.0,29.95,SW,231,5.0,5.6,77,0.00,,,0.00,TxWx,2013-02-08 06:18:00,
2013-02-08 01:20:00,70.4,62.0,29.95,WSW,253,5.0,5.0,77,0.00,,,0.00,TxWx,2013-02-08 06:20:00,
2013-02-08 01:23:00,70.4,62.0,29.95,WSW,253,4.3,5.0,77,0.00,,,0.00,TxWx,2013-02-08 06:23:00,
2013-02-08 01:24:00,70.4,62.0,29.95,West,276,5.6,5.6,77,0.00,,,0.00,TxWx,2013-02-08 06:24:00,
2013-02-08 01:26:00,70.3,62.0,29.95,WSW,253,4.3,5.0,77,0.00,,,0.00,TxWx,2013-02-08 06:26:00,
2013-02-08 01:28:00,70.3,63.0,29.95,WSW,253,5.0,5.6,78,0.00,,,0.00,TxWx,2013-02-08 06:28:00,
2013-02-08 01:29:00,70.3,63.0,29.95,SW,231,6.2,6.2,78,0.00,,,0.00,TxWx,2013-02-08 06:29:00,
2013-02-08 01:31:00,70.3,63.0,29.95,WSW,253,5.0,5.6,78,0.00,,,0.00,TxWx,2013-02-08 06:31:00,
2013-02-08 01:33:00,70.3,63.0,29.95,WSW,253,3.1,3.1,78,0.00,,,0.00,TxWx,2013-02-08 06:33:00,
2013-02-08 01:34:00,70.2,63.0,29.95,West,276,4.3,4.3,78,0.00,,,0.00,TxWx,2013-02-08 06:34:00,
2013-02-08 01:37:00,70.3,63.0,29.94,SSW,208,1.9,1.9,78,0.00,,,0.00,TxWx,2013-02-08 06:37:00,
2013-02-08 01:39:00,70.3,63.0,29.94,SSW,208,3.1,3.1,78,0.00,,,0.00,TxWx,2013-02-08 06:39:00,
2013-02-08 01:44:00,70.2,63.0,29.94,WSW,253,1.2,1.9,78,0.00,,,0.00,TxWx,2013-02-08 06:44:00,
2013-02-08 01:45:00,70.2,63.0,29.94,West,276,1.9,1.9,78,0.00,,,0.00,TxWx,2013-02-08 06:45:00,
2013-02-08 01:47:00,70.1,63.0,29.94,SW,231,1.2,1.9,78,0.00,,,0.00,TxWx,2013-02-08 06:47:00,
2013-02-08 01:49:00,70.1,63.0,29.94,SSW,208,1.2,1.2,78,0.00,,,0.00,TxWx,2013-02-08 06:49:00,
2013-02-08 01:51:00,70.1,63.0,29.94,SW,231,1.2,1.2,78,0.00,,,0.00,TxWx,2013-02-08 06:51:00,
2013-02-08 01:52:00,70.1,63.0,29.94,WSW,253,0.6,1.2,78,0.00,,,0.00,TxWx,2013-02-08 06:52:00,
2013-02-08 01:55:00,70.1,63.0,29.94,SW,231,1.2,1.9,78,0.00,,,0.00,TxWx,2013-02-08 06:55:00,
2013-02-08 01:56:00,70.1,63.0,29.94,SSW,208,1.2,1.9,78,0.00,,,0.00,TxWx,2013-02-08 06:56:00,
2013-02-08 01:57:00,70.0,63.0,29.93,South,186,2.5,3.7,78,0.00,,,0.00,TxWx,2013-02-08 06:57:00,
2013-02-08 02:01:00,69.9,63.0,29.93,South,186,1.9,1.9,78,0.00,,,0.00,TxWx,2013-02-08 07:01:00,
2013-02-08 02:02:00,69.8,63.0,29.93,SSW,208,3.7,3.7,78,0.00,,,0.00,TxWx,2013-02-08 07:02:00,
2013-02-08 02:07:00,69.8,63.0,29.93,South,186,3.7,4.3,79,0.00,,,0.00,TxWx,2013-02-08 07:07:00,
2013-02-08 02:08:00,69.7,63.0,29.92,WSW,253,1.9,1.9,79,0.00,,,0.00,TxWx,2013-02-08 07:08:00,
2013-02-08 02:09:00,69.7,63.0,29.93,SW,231,1.9,1.9,79,0.00,,,0.00,TxWx,2013-02-08 07:09:00,
2013-02-08 02:13:00,69.8,63.0,29.93,WSW,253,2.5,2.5,79,0.00,,,0.00,TxWx,2013-02-08 07:13:00,
2013-02-08 02:14:00,69.8,63.0,29.93,SW,231,2.5,2.5,79,0.00,,,0.00,TxWx,2013-02-08 07:14:00,
2013-02-08 02:18:00,69.8,63.0,29.93,WSW,253,1.9,1.9,80,0.00,,,0.00,TxWx,2013-02-08 07:18:00,
2013-02-08 02:19:00,69.8,63.0,29.93,WSW,253,2.5,2.5,80,0.00,,,0.00,TxWx,2013-02-08 07:19:00,
2013-02-08 02:24:00,69.5,63.0,29.92,SE,141,3.7,4.3,79,0.00,,,0.00,TxWx,2013-02-08 07:24:00,
2013-02-08 02:25:00,69.5,63.0,29.92,WSW,253,2.5,2.5,80,0.00,,,0.00,TxWx,2013-02-08 07:25:00,
2013-02-08 02:29:00,69.5,63.0,29.92,SW,231,2.5,2.5,80,0.00,,,0.00,TxWx,2013-02-08 07:29:00,
2013-02-08 02:30:00,69.6,63.0,29.92,WSW,253,1.9,1.9,80,0.00,,,0.00,TxWx,2013-02-08 07:30:00,
2013-02-08 02:35:00,69.7,64.0,29.93,SSW,208,1.2,1.2,80,0.00,,,0.00,TxWx,2013-02-08 07:35:00,
2013-02-08 02:36:00,69.7,64.0,29.93,South,186,3.7,3.7,80,0.00,,,0.00,TxWx,2013-02-08 07:36:00,
2013-02-08 02:37:00,69.7,64.0,29.93,WSW,253,5.6,6.8,81,0.00,,,0.00,TxWx,2013-02-08 07:37:00,
2013-02-08 02:40:00,69.7,64.0,29.92,SSW,208,6.2,6.2,81,0.00,,,0.00,TxWx,2013-02-08 07:40:00,
2013-02-08 02:41:00,69.7,64.0,29.92,SSW,208,2.5,3.1,81,0.00,,,0.00,TxWx,2013-02-08 07:41:00,
2013-02-08 02:45:00,69.7,64.0,29.92,SSW,208,1.9,1.9,81,0.00,,,0.00,TxWx,2013-02-08 07:45:00,
2013-02-08 02:46:00,69.7,64.0,29.93,South,186,3.1,4.3,81,0.00,,,0.00,TxWx,2013-02-08 07:46:00,
2013-02-08 02:47:00,69.8,64.0,29.93,WSW,253,3.7,3.7,81,0.00,,,0.00,TxWx,2013-02-08 07:47:00,
2013-02-08 02:51:00,69.8,64.0,29.93,SW,231,3.7,4.3,81,0.00,,,0.00,TxWx,2013-02-08 07:51:00,
2013-02-08 02:53:00,69.8,64.0,29.92,SW,231,2.5,3.1,81,0.00,,,0.00,TxWx,2013-02-08 07:53:00,
2013-02-08 02:56:00,69.7,64.0,29.92,SSW,208,4.3,4.3,81,0.00,,,0.00,TxWx,2013-02-08 07:56:00,
2013-02-08 03:00:00,69.8,64.0,29.92,SW,231,2.5,2.5,81,0.00,,,0.00,TxWx,2013-02-08 08:00:00,
2013-02-08 03:01:00,69.8,64.0,29.93,SSW,208,3.7,3.7,81,0.00,,,0.00,TxWx,2013-02-08 08:01:00,
2013-02-08 03:05:00,69.8,64.0,29.93,WSW,253,3.1,3.1,81,0.00,,,0.00,TxWx,2013-02-08 08:05:00,
2013-02-08 03:07:00,69.8,64.0,29.93,SW,231,4.3,4.3,81,0.00,,,0.00,TxWx,2013-02-08 08:07:00,
2013-02-08 03:10:00,69.8,64.0,29.93,WSW,253,5.6,5.6,81,0.00,,,0.00,TxWx,2013-02-08 08:10:00,
2013-02-08 03:11:00,69.8,64.0,29.93,WSW,253,5.0,5.0,81,0.00,,,0.00,TxWx,2013-02-08 08:11:00,
2013-02-08 03:13:00,69.7,64.0,29.93,SW,231,5.0,5.0,81,0.00,,,0.00,TxWx,2013-02-08 08:13:00,
2013-02-08 03:16:00,69.8,64.0,29.92,WSW,253,2.5,3.1,81,0.00,,,0.00,TxWx,2013-02-08 08:16:00,
2013-02-08 03:18:00,69.8,64.0,29.92,WSW,253,5.0,5.6,82,0.00,,,0.00,TxWx,2013-02-08 08:18:00,
2013-02-08 03:22:00,69.8,64.0,29.92,WSW,253,3.7,3.7,82,0.00,,,0.00,TxWx,2013-02-08 08:22:00,
2013-02-08 03:24:00,69.7,64.0,29.93,SW,231,3.7,4.3,82,0.00,,,0.00,TxWx,2013-02-08 08:24:00,
2013-02-08 03:26:00,69.6,64.0,29.93,WSW,253,5.0,5.6,82,0.00,,,0.00,TxWx,2013-02-08 08:26:00,
2013-02-08 03:27:00,69.6,64.0,29.92,WSW,253,3.1,3.1,82,0.00,,,0.00,TxWx,2013-02-08 08:27:00,
2013-02-08 03:31:00,69.5,64.0,29.93,West,276,4.3,4.3,82,0.00,,,0.00,TxWx,2013-02-08 08:31:00,
2013-02-08 03:32:00,69.5,63.0,29.93,WSW,253,3.1,3.1,82,0.00,,,0.00,TxWx,2013-02-08 08:32:00,
2013-02-08 03:34:00,69.5,63.0,29.93,West,276,5.6,6.2,82,0.00,,,0.00,TxWx,2013-02-08 08:34:00,
2013-02-08 03:37:00,69.4,63.0,29.93,WSW,253,3.1,3.1,82,0.00,,,0.00,TxWx,2013-02-08 08:37:00,
2013-02-08 03:41:00,69.4,63.0,29.93,SW,231,2.5,3.1,83,0.00,,,0.00,TxWx,2013-02-08 08:41:00,
2013-02-08 03:42:00,69.4,63.0,29.93,WSW,253,4.3,4.3,83,0.00,,,0.00,TxWx,2013-02-08 08:42:00,
2013-02-08 03:43:00,69.4,63.0,29.93,WSW,253,4.3,4.3,83,0.00,,,0.00,TxWx,2013-02-08 08:43:00,
2013-02-08 03:48:00,69.3,63.0,29.93,SSW,208,4.3,5.0,83,0.00,,,0.00,TxWx,2013-02-08 08:48:00,
2013-02-08 03:49:00,69.3,63.0,29.93,SW,231,2.5,3.1,83,0.00,,,0.00,TxWx,2013-02-08 08:49:00,
2013-02-08 03:53:00,69.3,63.0,29.93,WSW,253,3.7,5.0,83,0.00,,,0.00,TxWx,2013-02-08 08:53:00,
2013-02-08 03:55:00,69.3,64.0,29.93,WSW,253,3.7,3.7,83,0.00,,,0.00,TxWx,2013-02-08 08:55:00,
2013-02-08 03:58:00,69.3,64.0,29.93,WSW,253,5.6,5.6,83,0.00,,,0.00,TxWx,2013-02-08 08:58:00,
2013-02-08 04:00:00,69.3,64.0,29.93,WSW,253,2.5,2.5,83,0.00,,,0.00,TxWx,2013-02-08 09:00:00,
2013-02-08 04:01:00,69.3,64.0,29.93,WSW,253,3.1,3.1,83,0.00,,,0.00,TxWx,2013-02-08 09:01:00,
2013-02-08 04:04:00,69.3,64.0,29.93,WSW,253,2.5,2.5,83,0.00,,,0.00,TxWx,2013-02-08 09:04:00,
2013-02-08 04:05:00,69.3,64.0,29.93,WSW,253,2.5,2.5,83,0.00,,,0.00,TxWx,2013-02-08 09:05:00,
2013-02-08 04:06:00,69.3,64.0,29.93,SW,231,4.3,4.3,83,0.00,,,0.00,TxWx,2013-02-08 09:06:00,
2013-02-08 04:11:00,69.3,64.0,29.93,WSW,253,5.6,6.2,84,0.00,,,0.00,TxWx,2013-02-08 09:11:00,
2013-02-08 04:12:00,69.4,64.0,29.93,WSW,253,5.0,6.2,84,0.00,,,0.00,TxWx,2013-02-08 09:12:00,
2013-02-08 04:15:00,69.4,64.0,29.93,SW,231,3.7,3.7,84,0.00,,,0.00,TxWx,2013-02-08 09:15:00,
2013-02-08 04:16:00,69.4,64.0,29.93,SW,231,3.1,3.7,84,0.00,,,0.00,TxWx,2013-02-08 09:16:00,
2013-02-08 04:17:00,69.4,64.0,29.93,SSW,208,1.2,1.2,84,0.00,,,0.00,TxWx,2013-02-08 09:17:00,
2013-02-08 04:18:00,69.4,64.0,29.93,SSE,163,3.7,3.7,84,0.00,,,0.00,TxWx,2013-02-08 09:18:00,
2013-02-08 04:20:00,69.4,64.0,29.93,SSW,208,2.5,2.5,84,0.00,,,0.00,TxWx,2013-02-08 09:20:00,
2013-02-08 04:23:00,69.4,64.0,29.93,SSW,208,2.5,2.5,84,0.00,,,0.00,TxWx,2013-02-08 09:23:00,
2013-02-08 04:24:00,69.3,64.0,29.93,South,186,3.7,3.7,84,0.00,,,0.00,TxWx,2013-02-08 09:24:00,
2013-02-08 04:26:00,69.4,64.0,29.93,SSW,208,2.5,2.5,84,0.00,,,0.00,TxWx,2013-02-08 09:26:00,
2013-02-08 04:28:00,69.4,64.0,29.93,SSW,208,3.7,3.7,84,0.00,,,0.00,TxWx,2013-02-08 09:28:00,
2013-02-08 04:29:00,69.5,64.0,29.93,SSW,208,2.5,3.1,84,0.00,,,0.00,TxWx,2013-02-08 09:29:00,
2013-02-08 04:31:00,69.4,64.0,29.93,SW,231,1.9,2.5,84,0.00,,,0.00,TxWx,2013-02-08 09:31:00,
2013-02-08 04:32:00,69.5,64.0,29.92,SSW,208,3.7,3.7,84,0.00,,,0.00,TxWx,2013-02-08 09:32:00,
2013-02-08 04:35:00,69.5,65.0,29.93,SW,231,2.5,2.5,84,0.00,,,0.00,TxWx,2013-02-08 09:35:00,
2013-02-08 04:37:00,69.5,65.0,29.93,SSW,208,4.3,4.3,84,0.00,,,0.00,TxWx,2013-02-08 09:37:00,
2013-02-08 04:38:00,69.5,65.0,29.92,South,186,3.1,3.1,84,0.00,,,0.00,TxWx,2013-02-08 09:38:00,
2013-02-08 04:40:00,69.6,65.0,29.93,SSW,208,3.1,3.7,84,0.00,,,0.00,TxWx,2013-02-08 09:40:00,
2013-02-08 04:43:00,69.6,65.0,29.93,WSW,253,3.7,5.6,84,0.00,,,0.00,TxWx,2013-02-08 09:43:00,
2013-02-08 04:46:00,69.7,65.0,29.92,SW,231,2.5,2.5,84,0.00,,,0.00,TxWx,2013-02-08 09:46:00,
2013-02-08 04:48:00,69.7,65.0,29.92,SSW,208,5.0,5.0,84,0.00,,,0.00,TxWx,2013-02-08 09:48:00,
2013-02-08 04:49:00,69.7,65.0,29.92,WSW,253,1.9,2.5,84,0.00,,,0.00,TxWx,2013-02-08 09:49:00,
2013-02-08 04:51:00,69.8,65.0,29.92,SW,231,6.2,6.2,84,0.00,,,0.00,TxWx,2013-02-08 09:51:00,
2013-02-08 04:54:00,69.8,65.0,29.92,WSW,253,3.7,3.7,84,0.00,,,0.00,TxWx,2013-02-08 09:54:00,
2013-02-08 04:55:00,69.8,65.0,29.92,SSW,208,5.6,6.2,84,0.00,,,0.00,TxWx,2013-02-08 09:55:00,
2013-02-08 04:57:00,69.8,65.0,29.92,SW,231,1.2,1.9,84,0.00,,,0.00,TxWx,2013-02-08 09:57:00,
2013-02-08 05:01:00,69.9,65.0,29.93,WSW,253,3.1,3.1,84,0.00,,,0.00,TxWx,2013-02-08 10:01:00,
2013-02-08 05:02:00,70.0,65.0,29.93,SW,231,1.2,1.9,84,0.00,,,0.00,TxWx,2013-02-08 10:02:00,
2013-02-08 05:03:00,70.0,65.0,29.93,WSW,253,3.1,3.1,84,0.00,,,0.00,TxWx,2013-02-08 10:03:00,
2013-02-08 05:06:00,70.0,65.0,29.92,SSE,163,3.1,3.7,84,0.00,,,0.00,TxWx,2013-02-08 10:06:00,
2013-02-08 05:07:00,70.0,65.0,29.92,WSW,253,2.5,2.5,84,0.00,,,0.00,TxWx,2013-02-08 10:07:00,
2013-02-08 05:08:00,70.1,65.0,29.93,SSW,208,1.9,1.9,84,0.00,,,0.00,TxWx,2013-02-08 10:08:00,
2013-02-08 05:13:00,70.1,65.0,29.92,SW,231,2.5,2.5,84,0.00,,,0.00,TxWx,2013-02-08 10:13:00,
2013-02-08 05:14:00,70.1,65.0,29.92,WSW,253,3.7,3.7,84,0.00,,,0.00,TxWx,2013-02-08 10:14:00,
2013-02-08 05:16:00,70.0,65.0,29.92,SE,141,5.0,6.8,84,0.00,,,0.00,TxWx,2013-02-08 10:16:00,
2013-02-08 05:18:00,70.1,65.0,29.92,WSW,253,5.0,5.0,84,0.00,,,0.00,TxWx,2013-02-08 10:18:00,
2013-02-08 05:19:00,70.1,65.0,29.92,SSW,208,1.9,2.5,84,0.00,,,0.00,TxWx,2013-02-08 10:19:00,
2013-02-08 05:22:00,70.1,65.0,29.92,WSW,253,2.5,2.5,84,0.00,,,0.00,TxWx,2013-02-08 10:22:00,
2013-02-08 05:23:00,70.2,65.0,29.93,South,186,3.7,4.3,84,0.00,,,0.00,TxWx,2013-02-08 10:23:00,
2013-02-08 05:24:00,70.2,65.0,29.92,SW,231,1.9,1.9,84,0.00,,,0.00,TxWx,2013-02-08 10:24:00,
2013-02-08 05:26:00,70.2,65.0,29.93,SW,231,2.5,3.1,84,0.00,,,0.00,TxWx,2013-02-08 10:26:00,
2013-02-08 05:28:00,70.2,65.0,29.93,SSE,163,2.5,2.5,84,0.00,,,0.00,TxWx,2013-02-08 10:28:00,
2013-02-08 05:29:00,70.2,65.0,29.93,SSW,208,2.5,3.1,84,0.00,,,0.00,TxWx,2013-02-08 10:29:00,
2013-02-08 05:34:00,70.1,65.0,29.93,WSW,253,5.0,5.6,84,0.00,,,0.00,TxWx,2013-02-08 10:34:00,
2013-02-08 05:35:00,70.1,65.0,29.93,West,276,5.0,5.0,84,0.00,,,0.00,TxWx,2013-02-08 10:35:00,
2013-02-08 05:37:00,70.1,65.0,29.94,West,276,5.6,5.6,84,0.00,,,0.00,TxWx,2013-02-08 10:37:00,
2013-02-08 05:38:00,70.1,65.0,29.94,WSW,253,5.0,5.0,84,0.00,,,0.00,TxWx,2013-02-08 10:38:00,
2013-02-08 05:40:00,70.0,65.0,29.94,SW,231,5.0,5.0,84,0.00,,,0.00,TxWx,2013-02-08 10:40:00,
2013-02-08 05:43:00,70.1,65.0,29.94,WSW,253,5.6,5.6,84,0.00,,,0.00,TxWx,2013-02-08 10:43:00,
2013-02-08 05:44:00,70.1,65.0,29.94,SW,231,8.7,9.9,84,0.00,,,0.00,TxWx,2013-02-08 10:44:00,
2013-02-08 05:47:00,70.1,65.0,29.94,SW,231,5.0,5.6,84,0.00,,,0.00,TxWx,2013-02-08 10:47:00,
2013-02-08 05:48:00,70.1,65.0,29.94,WSW,253,4.3,4.3,84,0.00,,,0.00,TxWx,2013-02-08 10:48:00,
2013-02-08 05:50:00,70.1,65.0,29.94,WSW,253,9.3,9.3,84,0.00,,,0.00,TxWx,2013-02-08 10:50:00,
2013-02-08 05:53:00,70.0,65.0,29.94,SW,231,6.8,7.4,84,0.00,,,0.00,TxWx,2013-02-08 10:53:00,
2013-02-08 05:55:00,70.0,65.0,29.94,West,276,5.6,5.6,84,0.00,,,0.00,TxWx,2013-02-08 10:55:00,
2013-02-08 05:56:00,70.1,65.0,29.94,WSW,253,5.0,5.6,84,0.00,,,0.00,TxWx,2013-02-08 10:56:00,
2013-02-08 05:58:00,70.0,65.0,29.95,West,276,5.0,6.2,84,0.00,,,0.00,TxWx,2013-02-08 10:58:00,
2013-02-08 06:01:00,70.0,65.0,29.95,West,276,5.6,6.2,84,0.00,,,0.00,TxWx,2013-02-08 11:01:00,
2013-02-08 06:03:00,70.0,65.0,29.95,WSW,253,6.2,6.2,84,0.00,,,0.00,TxWx,2013-02-08 11:03:00,
2013-02-08 06:04:00,70.0,65.0,29.94,SW,231,5.0,5.0,84,0.00,,,0.00,TxWx,2013-02-08 11:04:00,
2013-02-08 06:09:00,70.1,65.0,29.95,SW,231,5.0,5.0,85,0.00,,,0.00,TxWx,2013-02-08 11:09:00,
2013-02-08 06:10:00,70.1,65.0,29.95,West,276,4.3,5.0,85,0.00,,,0.00,TxWx,2013-02-08 11:10:00,
2013-02-08 06:15:00,70.0,65.0,29.95,SW,231,5.6,5.6,85,0.00,,,0.00,TxWx,2013-02-08 11:15:00,
2013-02-08 06:16:00,70.1,65.0,29.95,WSW,253,5.6,5.6,85,0.00,,,0.00,TxWx,2013-02-08 11:16:00,
2013-02-08 06:17:00,70.1,65.0,29.95,WSW,253,5.6,6.2,85,0.00,,,0.00,TxWx,2013-02-08 11:17:00,
2013-02-08 06:20:00,70.1,65.0,29.95,WSW,253,5.0,5.0,85,0.00,,,0.00,TxWx,2013-02-08 11:20:00,
2013-02-08 06:21:00,70.1,65.0,29.95,SW,231,4.3,5.0,85,0.00,,,0.00,TxWx,2013-02-08 11:21:00,
2013-02-08 06:24:00,70.0,65.0,29.94,WSW,253,5.6,6.2,85,0.00,,,0.00,TxWx,2013-02-08 11:24:00,
2013-02-08 06:26:00,70.0,65.0,29.95,SSW,208,5.6,8.0,85,0.00,,,0.00,TxWx,2013-02-08 11:26:00,
2013-02-08 06:29:00,70.1,65.0,29.95,WSW,253,6.2,6.2,85,0.00,,,0.00,TxWx,2013-02-08 11:29:00,
2013-02-08 06:31:00,70.1,65.0,29.95,West,276,5.6,6.8,85,0.00,,,0.00,TxWx,2013-02-08 11:31:00,
2013-02-08 06:32:00,70.1,65.0,29.95,WSW,253,6.8,6.8,85,0.00,,,0.00,TxWx,2013-02-08 11:32:00,
2013-02-08 06:36:00,70.1,65.0,29.95,WSW,253,3.7,3.7,85,0.00,,,0.00,TxWx,2013-02-08 11:36:00,
2013-02-08 06:37:00,70.1,65.0,29.95,SW,231,6.2,6.2,85,0.00,,,0.00,TxWx,2013-02-08 11:37:00,
2013-02-08 06:42:00,70.1,65.0,29.96,West,276,6.8,8.0,85,0.00,,,0.00,TxWx,2013-02-08 11:42:00,
2013-02-08 06:43:00,70.1,65.0,29.96,WSW,253,7.4,7.4,85,0.00,,,0.00,TxWx,2013-02-08 11:43:00,
2013-02-08 06:44:00,70.1,65.0,29.95,SW,231,3.7,5.0,85,0.00,,,0.00,TxWx,2013-02-08 11:44:00,
2013-02-08 06:46:00,70.1,65.0,29.95,West,276,5.0,5.6,86,0.00,,,0.00,TxWx,2013-02-08 11:46:00,
2013-02-08 06:48:00,70.2,65.0,29.96,SW,231,5.6,5.6,86,0.00,,,0.00,TxWx,2013-02-08 11:48:00,
2013-02-08 06:51:00,70.2,65.0,29.96,WSW,253,7.4,7.4,86,0.00,,,0.00,TxWx,2013-02-08 11:51:00,
2013-02-08 06:53:00,70.2,66.0,29.96,WSW,253,6.8,7.4,86,0.00,,,0.00,TxWx,2013-02-08 11:53:00,
2013-02-08 06:56:00,70.2,66.0,29.97,WSW,253,5.6,6.2,86,0.00,,,0.00,TxWx,2013-02-08 11:56:00,
2013-02-08 06:58:00,70.2,66.0,29.97,West,276,7.4,7.4,87,0.00,,,0.00,TxWx,2013-02-08 11:58:00,
2013-02-08 06:59:00,70.2,66.0,29.97,WSW,253,5.6,5.6,87,0.00,,,0.00,TxWx,2013-02-08 11:59:00,
2013-02-08 07:02:00,70.2,66.0,29.97,WSW,253,6.2,6.2,87,0.00,,,0.00,TxWx,2013-02-08 12:02:00,
2013-02-08 07:03:00,70.2,66.0,29.97,SW,231,9.3,9.3,87,0.00,,,0.00,TxWx,2013-02-08 12:03:00,
2013-02-08 07:04:00,70.2,66.0,29.97,WSW,253,8.0,8.0,87,0.00,,,0.00,TxWx,2013-02-08 12:04:00,
2013-02-08 07:08:00,70.1,66.0,29.97,WSW,253,5.0,6.2,87,0.00,,,0.00,TxWx,2013-02-08 12:08:00,
2013-02-08 07:10:00,70.1,66.0,29.97,WSW,253,6.8,6.8,87,0.00,,,0.00,TxWx,2013-02-08 12:10:00,
2013-02-08 07:14:00,70.1,66.0,29.97,West,276,6.2,6.8,87,0.00,,,0.00,TxWx,2013-02-08 12:14:00,
2013-02-08 07:16:00,70.1,66.0,29.97,SW,231,8.7,10.5,87,0.00,,,0.00,TxWx,2013-02-08 12:16:00,
2013-02-08 07:17:00,70.1,66.0,29.97,West,276,6.8,6.8,87,0.00,,,0.00,TxWx,2013-02-08 12:17:00,
2013-02-08 07:18:00,70.1,66.0,29.97,WSW,253,7.4,7.4,87,0.00,,,0.00,TxWx,2013-02-08 12:18:00,
2013-02-08 07:20:00,70.1,66.0,29.97,WSW,253,5.6,6.8,87,0.00,,,0.00,TxWx,2013-02-08 12:20:00,
2013-02-08 07:21:00,70.1,66.0,29.97,WSW,253,7.4,7.4,87,0.00,,,0.00,TxWx,2013-02-08 12:21:00,
2013-02-08 07:24:00,70.1,66.0,29.97,SW,231,5.6,5.6,87,0.00,,,0.00,TxWx,2013-02-08 12:24:00,
2013-02-08 07:26:00,70.0,66.0,29.97,WSW,253,8.0,8.0,87,0.00,,,0.00,TxWx,2013-02-08 12:26:00,
2013-02-08 07:29:00,70.1,66.0,29.97,WSW,253,5.6,5.6,87,0.00,,,0.00,TxWx,2013-02-08 12:29:00,
2013-02-08 07:30:00,70.1,66.0,29.97,West,276,8.7,9.9,87,0.00,,,0.00,TxWx,2013-02-08 12:30:00,
2013-02-08 07:32:00,70.1,66.0,29.97,WSW,253,10.5,10.5,87,0.00,,,0.00,TxWx,2013-02-08 12:32:00,
2013-02-08 07:34:00,70.2,66.0,29.97,West,276,6.8,8.0,87,0.00,,,0.00,TxWx,2013-02-08 12:34:00,
2013-02-08 07:36:00,70.2,66.0,29.97,West,276,6.2,8.0,87,0.00,,,0.00,TxWx,2013-02-08 12:36:00,
2013-02-08 07:37:00,70.3,66.0,29.97,WSW,253,6.8,6.8,87,0.00,,,0.00,TxWx,2013-02-08 12:37:00,
2013-02-08 07:41:00,70.3,66.0,29.97,WSW,253,8.7,9.3,86,0.00,,,0.00,TxWx,2013-02-08 12:41:00,
2013-02-08 07:42:00,70.3,66.0,29.97,WSW,253,7.4,7.4,86,0.00,,,0.00,TxWx,2013-02-08 12:42:00,
2013-02-08 07:44:00,70.4,66.0,29.98,West,276,6.2,7.4,86,0.00,,,0.00,TxWx,2013-02-08 12:44:00,
2013-02-08 07:47:00,70.5,66.0,29.98,West,276,10.5,10.5,86,0.00,,,0.00,TxWx,2013-02-08 12:47:00,
2013-02-08 07:48:00,70.4,66.0,29.98,SW,231,11.8,11.8,86,0.00,,,0.00,TxWx,2013-02-08 12:48:00,
2013-02-08 07:52:00,70.6,67.0,29.98,WSW,253,13.0,13.0,86,0.00,,,0.00,TxWx,2013-02-08 12:52:00,
2013-02-08 07:53:00,70.7,67.0,29.98,WSW,253,8.0,8.7,86,0.00,,,0.00,TxWx,2013-02-08 12:53:00,
2013-02-08 07:54:00,70.7,67.0,29.98,WSW,253,6.8,6.8,86,0.00,,,0.00,TxWx,2013-02-08 12:54:00,
2013-02-08 07:57:00,70.8,67.0,29.98,WSW,253,9.3,11.1,86,0.00,,,0.00,TxWx,2013-02-08 12:57:00,
2013-02-08 07:58:00,70.8,67.0,29.98,WSW,253,8.7,9.3,86,0.00,,,0.00,TxWx,2013-02-08 12:58:00,
2013-02-08 07:59:00,70.9,67.0,29.98,WNW,298,9.3,10.5,86,0.00,,,0.00,TxWx,2013-02-08 12:59:00,
2013-02-08 08:03:00,70.9,67.0,29.99,WSW,253,8.0,9.9,86,0.00,,,0.00,TxWx,2013-02-08 13:03:00,
2013-02-08 08:04:00,71.0,67.0,29.99,WSW,253,8.7,9.3,86,0.00,,,0.00,TxWx,2013-02-08 13:04:00,
2013-02-08 08:05:00,71.0,67.0,29.99,WSW,253,9.9,9.9,86,0.00,,,0.00,TxWx,2013-02-08 13:05:00,
2013-02-08 08:09:00,71.0,67.0,29.98,West,276,11.8,14.2,86,0.00,,,0.00,TxWx,2013-02-08 13:09:00,
2013-02-08 08:10:00,71.1,67.0,29.98,West,276,10.5,10.5,86,0.00,,,0.00,TxWx,2013-02-08 13:10:00,
2013-02-08 08:12:00,71.1,67.0,29.98,SW,231,14.9,14.9,86,0.00,,,0.00,TxWx,2013-02-08 13:12:00,
2013-02-08 08:14:00,71.1,67.0,29.99,WSW,253,11.8,13.0,86,0.00,,,0.00,TxWx,2013-02-08 13:14:00,
2013-02-08 08:15:00,71.2,67.0,29.99,WSW,253,11.1,14.2,86,0.00,,,0.00,TxWx,2013-02-08 13:15:00,
2013-02-08 08:18:00,71.1,67.0,29.99,WSW,253,11.1,13.6,86,0.00,,,0.00,TxWx,2013-02-08 13:18:00,
2013-02-08 08:19:00,71.1,67.0,29.99,WSW,253,13.6,13.6,86,0.00,,,0.00,TxWx,2013-02-08 13:19:00,
2013-02-08 08:20:00,71.1,67.0,29.99,WSW,253,9.9,11.1,86,0.00,,,0.00,TxWx,2013-02-08 13:20:00,
2013-02-08 08:21:00,71.1,67.0,29.99,WSW,253,11.8,11.8,86,0.00,,,0.00,TxWx,2013-02-08 13:21:00,
2013-02-08 08:24:00,71.2,67.0,29.99,WSW,253,9.3,9.3,86,0.00,,,0.00,TxWx,2013-02-08 13:24:00,
2013-02-08 08:27:00,71.3,67.0,29.99,WSW,253,6.8,8.7,86,0.00,,,0.00,TxWx,2013-02-08 13:27:00,
2013-02-08 08:29:00,71.3,66.0,29.99,WSW,253,9.3,10.5,86,0.00,,,0.00,TxWx,2013-02-08 13:29:00,
2013-02-08 08:30:00,71.3,66.0,30.00,WSW,253,8.0,8.0,86,0.00,,,0.00,TxWx,2013-02-08 13:30:00,
2013-02-08 08:32:00,71.3,66.0,30.00,WNW,298,8.7,14.2,86,0.00,,,0.00,TxWx,2013-02-08 13:32:00,
2013-02-08 08:33:00,71.4,66.0,30.00,WSW,253,9.3,9.3,86,0.00,,,0.00,TxWx,2013-02-08 13:33:00,
2013-02-08 08:35:00,71.5,66.0,30.00,WSW,253,8.7,9.3,85,0.00,,,0.00,TxWx,2013-02-08 13:35:00,
2013-02-08 08:38:00,71.4,66.0,30.00,NW,321,11.1,13.6,85,0.00,,,0.00,TxWx,2013-02-08 13:38:00,
2013-02-08 08:39:00,71.5,67.0,30.00,West,276,11.1,11.1,85,0.00,,,0.00,TxWx,2013-02-08 13:39:00,
2013-02-08 08:40:00,71.5,67.0,30.00,West,276,10.5,11.1,85,0.00,,,0.00,TxWx,2013-02-08 13:40:00,
2013-02-08 08:43:00,71.7,67.0,30.00,WSW,253,13.0,13.6,84,0.00,,,0.00,TxWx,2013-02-08 13:43:00,
2013-02-08 08:44:00,71.8,67.0,30.01,WSW,253,10.5,11.8,85,0.00,,,0.00,TxWx,2013-02-08 13:44:00,
2013-02-08 08:45:00,71.7,67.0,30.01,West,276,9.3,9.9,84,0.00,,,0.00,TxWx,2013-02-08 13:45:00,
2013-02-08 08:46:00,71.9,67.0,30.01,SW,231,8.7,9.3,84,0.00,,,0.00,TxWx,2013-02-08 13:46:00,
2013-02-08 08:49:00,71.9,67.0,30.01,WSW,253,6.2,8.0,84,0.00,,,0.00,TxWx,2013-02-08 13:49:00,
2013-02-08 08:51:00,71.9,67.0,30.01,WSW,253,10.5,13.0,84,0.00,,,0.00,TxWx,2013-02-08 13:51:00,
2013-02-08 08:52:00,72.0,67.0,30.01,West,276,16.1,16.1,84,0.00,,,0.00,TxWx,2013-02-08 13:52:00,
2013-02-08 08:55:00,72.1,66.0,30.00,West,276,14.9,14.9,83,0.00,,,0.00,TxWx,2013-02-08 13:55:00,
2013-02-08 08:56:00,72.1,66.0,30.01,WSW,253,11.8,13.0,83,0.00,,,0.00,TxWx,2013-02-08 13:56:00,
2013-02-08 08:57:00,72.2,66.0,30.01,WSW,253,8.7,11.8,83,0.00,,,0.00,TxWx,2013-02-08 13:57:00,
2013-02-08 08:59:00,72.4,67.0,30.01,WSW,253,8.7,9.9,83,0.00,,,0.00,TxWx,2013-02-08 13:59:00,
2013-02-08 09:01:00,72.4,66.0,30.01,WNW,298,9.9,9.9,83,0.00,,,0.00,TxWx,2013-02-08 14:01:00,
2013-02-08 09:02:00,72.5,66.0,30.01,WSW,253,8.7,8.7,83,0.00,,,0.00,TxWx,2013-02-08 14:02:00,
2013-02-08 09:07:00,72.4,66.0,30.02,West,276,13.6,13.6,82,0.00,,,0.00,TxWx,2013-02-08 14:07:00,
2013-02-08 09:08:00,72.4,66.0,30.02,West,276,17.9,17.9,82,0.00,,,0.00,TxWx,2013-02-08 14:08:00,
2013-02-08 09:11:00,72.5,67.0,30.02,WSW,253,14.2,14.2,82,0.00,,,0.00,TxWx,2013-02-08 14:11:00,
2013-02-08 09:12:00,72.6,67.0,30.02,West,276,13.0,16.1,82,0.00,,,0.00,TxWx,2013-02-08 14:12:00,
2013-02-08 09:13:00,72.8,67.0,30.02,West,276,8.0,12.4,82,0.00,,,0.00,TxWx,2013-02-08 14:13:00,
2013-02-08 09:18:00,72.6,67.0,30.03,West,276,15.5,15.5,82,0.00,,,0.00,TxWx,2013-02-08 14:18:00,
2013-02-08 09:19:00,72.5,67.0,30.02,West,276,13.0,13.0,82,0.00,,,0.00,TxWx,2013-02-08 14:19:00,
2013-02-08 09:24:00,72.8,67.0,30.02,West,276,9.9,12.4,82,0.00,,,0.00,TxWx,2013-02-08 14:24:00,
2013-02-08 09:25:00,72.8,67.0,30.02,West,276,9.9,9.9,82,0.00,,,0.00,TxWx,2013-02-08 14:25:00,
2013-02-08 09:26:00,72.8,67.0,30.02,West,276,9.9,9.9,82,0.00,,,0.00,TxWx,2013-02-08 14:26:00,
2013-02-08 09:29:00,72.9,67.0,30.02,West,276,13.6,13.6,82,0.00,,,0.00,TxWx,2013-02-08 14:29:00,
2013-02-08 09:30:00,72.7,67.0,30.02,WNW,298,12.4,13.0,81,0.00,,,0.00,TxWx,2013-02-08 14:30:00,
2013-02-08 09:32:00,72.7,67.0,30.02,West,276,11.8,11.8,81,0.00,,,0.00,TxWx,2013-02-08 14:32:00,
2013-02-08 09:35:00,72.8,67.0,30.02,West,276,9.9,10.5,81,0.00,,,0.00,TxWx,2013-02-08 14:35:00,
2013-02-08 09:38:00,72.8,67.0,30.02,West,276,13.0,13.0,81,0.00,,,0.00,TxWx,2013-02-08 14:38:00,
2013-02-08 09:40:00,72.8,67.0,30.03,West,276,14.2,14.9,81,0.00,,,0.00,TxWx,2013-02-08 14:40:00,
2013-02-08 09:41:00,72.9,67.0,30.03,West,276,11.8,11.8,81,0.00,,,0.00,TxWx,2013-02-08 14:41:00,
2013-02-08 09:42:00,72.7,67.0,30.03,WNW,298,9.9,11.1,81,0.00,,,0.00,TxWx,2013-02-08 14:42:00,
2013-02-08 09:46:00,72.7,67.0,30.03,West,276,13.6,13.6,81,0.00,,,0.00,TxWx,2013-02-08 14:46:00,
2013-02-08 09:51:00,72.6,67.0,30.03,WSW,253,13.0,14.9,81,0.00,,,0.00,TxWx,2013-02-08 14:51:00,
2013-02-08 09:52:00,72.7,67.0,30.03,West,276,9.9,9.9,81,0.00,,,0.00,TxWx,2013-02-08 14:52:00,
2013-02-08 09:57:00,72.7,67.0,30.03,WSW,253,5.6,5.6,82,0.00,,,0.00,TxWx,2013-02-08 14:57:00,
2013-02-08 09:58:00,72.5,67.0,30.03,West,276,11.1,13.0,81,0.00,,,0.00,TxWx,2013-02-08 14:58:00,
2013-02-08 10:03:00,72.5,66.0,30.03,WNW,298,13.0,13.0,82,0.00,,,0.00,TxWx,2013-02-08 15:03:00,
2013-02-08 10:04:00,72.5,66.0,30.03,West,276,13.6,14.9,82,0.00,,,0.00,TxWx,2013-02-08 15:04:00,
2013-02-08 10:08:00,72.4,66.0,30.02,WNW,298,16.1,16.1,82,0.00,,,0.00,TxWx,2013-02-08 15:08:00,
2013-02-08 10:09:00,72.5,66.0,30.03,West,276,13.0,14.2,82,0.00,,,0.00,TxWx,2013-02-08 15:09:00,
2013-02-08 10:10:00,72.5,67.0,30.02,West,276,13.6,13.6,82,0.00,,,0.00,TxWx,2013-02-08 15:10:00,
2013-02-08 10:12:00,72.5,67.0,30.03,WNW,298,11.1,11.1,82,0.00,,,0.00,TxWx,2013-02-08 15:12:00,
2013-02-08 10:14:00,72.7,67.0,30.03,West,276,13.0,13.0,82,0.00,,,0.00,TxWx,2013-02-08 15:14:00,
2013-02-08 10:17:00,72.8,67.0,30.03,West,276,13.0,13.0,82,0.00,,,0.00,TxWx,2013-02-08 15:17:00,
2013-02-08 10:19:00,72.8,67.0,30.03,WNW,298,8.7,8.7,82,0.00,,,0.00,TxWx,2013-02-08 15:19:00,
2013-02-08 10:20:00,72.7,67.0,30.03,SW,231,8.7,13.0,81,0.00,,,0.00,TxWx,2013-02-08 15:20:00,
2013-02-08 10:23:00,73.1,67.0,30.03,West,276,10.5,11.1,82,0.00,,,0.00,TxWx,2013-02-08 15:23:00,
2013-02-08 10:25:00,72.9,67.0,30.03,West,276,13.0,13.6,81,0.00,,,0.00,TxWx,2013-02-08 15:25:00,
2013-02-08 10:26:00,72.9,67.0,30.03,WNW,298,9.3,9.3,81,0.00,,,0.00,TxWx,2013-02-08 15:26:00,
2013-02-08 10:27:00,73.0,67.0,30.03,WNW,298,12.4,12.4,81,0.00,,,0.00,TxWx,2013-02-08 15:27:00,
2013-02-08 10:30:00,73.0,66.0,30.03,WSW,253,11.1,13.6,80,0.00,,,0.00,TxWx,2013-02-08 15:30:00,
2013-02-08 10:31:00,73.2,66.0,30.03,West,276,13.6,14.9,80,0.00,,,0.00,TxWx,2013-02-08 15:31:00,
2013-02-08 10:36:00,73.0,66.0,30.02,West,276,14.2,14.9,78,0.00,,,0.00,TxWx,2013-02-08 15:36:00,
2013-02-08 10:37:00,73.1,66.0,30.03,West,276,14.2,14.2,79,0.00,,,0.00,TxWx,2013-02-08 15:37:00,
2013-02-08 10:38:00,73.2,66.0,30.03,West,276,15.5,15.5,79,0.00,,,0.00,TxWx,2013-02-08 15:38:00,
2013-02-08 10:41:00,73.1,66.0,30.02,West,276,14.9,17.3,78,0.00,,,0.00,TxWx,2013-02-08 15:41:00,
2013-02-08 10:42:00,73.1,66.0,30.03,West,276,14.2,14.2,78,0.00,,,0.00,TxWx,2013-02-08 15:42:00,
2013-02-08 10:43:00,73.2,66.0,30.03,West,276,16.1,17.9,78,0.00,,,0.00,TxWx,2013-02-08 15:43:00,
2013-02-08 10:47:00,73.2,66.0,30.03,West,276,11.8,13.0,78,0.00,,,0.00,TxWx,2013-02-08 15:47:00,
2013-02-08 10:49:00,73.3,66.0,30.02,West,276,14.9,15.5,78,0.00,,,0.00,TxWx,2013-02-08 15:49:00,
2013-02-08 10:52:00,73.2,66.0,30.02,West,276,12.4,12.4,78,0.00,,,0.00,TxWx,2013-02-08 15:52:00,
2013-02-08 10:54:00,73.3,65.0,30.02,West,276,13.0,14.2,77,0.00,,,0.00,TxWx,2013-02-08 15:54:00,
2013-02-08 10:55:00,73.4,66.0,30.02,West,276,13.6,13.6,78,0.00,,,0.00,TxWx,2013-02-08 15:55:00,
2013-02-08 10:58:00,73.5,65.0,30.02,West,276,11.1,11.8,77,0.00,,,0.00,TxWx,2013-02-08 15:58:00,
2013-02-08 10:59:00,73.5,66.0,30.02,WNW,298,10.5,12.4,77,0.00,,,0.00,TxWx,2013-02-08 15:59:00,
2013-02-08 11:01:00,73.5,65.0,30.02,West,276,12.4,12.4,76,0.00,,,0.00,TxWx,2013-02-08 16:01:00,
2013-02-08 11:03:00,73.5,65.0,30.02,West,276,14.9,16.1,76,0.00,,,0.00,TxWx,2013-02-08 16:03:00,
2013-02-08 11:04:00,73.5,66.0,30.02,WNW,298,12.4,13.6,76,0.00,,,0.00,TxWx,2013-02-08 16:04:00,
2013-02-08 11:06:00,73.4,65.0,30.02,West,276,17.3,18.6,76,0.00,,,0.00,TxWx,2013-02-08 16:06:00,
2013-02-08 11:09:00,73.3,65.0,30.02,West,276,16.1,16.1,76,0.00,,,0.00,TxWx,2013-02-08 16:09:00,
2013-02-08 11:11:00,73.5,65.0,30.02,West,276,14.2,15.5,76,0.00,,,0.00,TxWx,2013-02-08 16:11:00,
2013-02-08 11:13:00,73.6,66.0,30.02,West,276,11.1,11.8,76,0.00,,,0.00,TxWx,2013-02-08 16:13:00,
2013-02-08 11:14:00,73.5,66.0,30.02,West,276,16.1,16.1,76,0.00,,,0.00,TxWx,2013-02-08 16:14:00,
2013-02-08 11:15:00,73.6,66.0,30.02,West,276,9.3,11.8,76,0.00,,,0.00,TxWx,2013-02-08 16:15:00,
2013-02-08 11:16:00,73.5,65.0,30.02,WNW,298,11.1,11.1,76,0.00,,,0.00,TxWx,2013-02-08 16:16:00,
2013-02-08 11:19:00,73.6,66.0,30.02,West,276,13.0,13.0,75,0.00,,,0.00,TxWx,2013-02-08 16:19:00,
2013-02-08 11:20:00,73.8,66.0,30.02,West,276,11.1,11.1,76,0.00,,,0.00,TxWx,2013-02-08 16:20:00,
2013-02-08 11:23:00,73.9,66.0,30.02,WNW,298,9.3,9.9,76,0.00,,,0.00,TxWx,2013-02-08 16:23:00,
2013-02-08 11:24:00,73.9,66.0,30.02,West,276,13.0,13.0,75,0.00,,,0.00,TxWx,2013-02-08 16:24:00,
2013-02-08 11:25:00,73.9,65.0,30.02,West,276,10.5,10.5,75,0.00,,,0.00,TxWx,2013-02-08 16:25:00,
2013-02-08 11:26:00,74.0,65.0,30.02,WNW,298,8.0,8.0,75,0.00,,,0.00,TxWx,2013-02-08 16:26:00,
2013-02-08 11:28:00,74.1,65.0,30.02,West,276,13.0,13.6,74,0.00,,,0.00,TxWx,2013-02-08 16:28:00,
2013-02-08 11:31:00,74.4,65.0,30.02,West,276,9.9,10.5,74,0.00,,,0.00,TxWx,2013-02-08 16:31:00,
2013-02-08 11:32:00,74.5,65.0,30.02,West,276,13.0,13.0,73,0.00,,,0.00,TxWx,2013-02-08 16:32:00,
2013-02-08 11:34:00,74.6,66.0,30.01,West,276,14.2,14.2,73,0.00,,,0.00,TxWx,2013-02-08 16:34:00,
2013-02-08 11:36:00,74.6,66.0,30.02,WSW,253,14.2,16.1,74,0.00,,,0.00,TxWx,2013-02-08 16:36:00,
2013-02-08 11:38:00,74.4,65.0,30.02,WNW,298,9.9,10.5,73,0.00,,,0.00,TxWx,2013-02-08 16:38:00,
2013-02-08 11:40:00,74.5,66.0,30.02,West,276,9.3,9.9,74,0.00,,,0.00,TxWx,2013-02-08 16:40:00,
2013-02-08 11:41:00,74.4,65.0,30.02,WSW,253,11.8,12.4,74,0.00,,,0.00,TxWx,2013-02-08 16:41:00,
2013-02-08 11:45:00,74.4,65.0,30.02,WNW,298,8.7,9.9,74,0.00,,,0.00,TxWx,2013-02-08 16:45:00,
2013-02-08 11:46:00,74.5,66.0,30.02,WNW,298,9.3,9.9,74,0.00,,,0.00,TxWx,2013-02-08 16:46:00,
2013-02-08 11:47:00,74.5,66.0,30.02,West,276,11.8,11.8,75,0.00,,,0.00,TxWx,2013-02-08 16:47:00,
2013-02-08 11:51:00,74.4,65.0,30.02,WSW,253,8.7,9.9,74,0.00,,,0.00,TxWx,2013-02-08 16:51:00,
2013-02-08 11:52:00,74.4,65.0,30.02,West,276,11.8,11.8,73,0.00,,,0.00,TxWx,2013-02-08 16:52:00,
2013-02-08 11:53:00,74.6,66.0,30.02,West,276,11.8,11.8,74,0.00,,,0.00,TxWx,2013-02-08 16:53:00,
2013-02-08 11:54:00,74.5,66.0,30.02,West,276,14.2,14.2,74,0.00,,,0.00,TxWx,2013-02-08 16:54:00,
2013-02-08 11:56:00,74.7,66.0,30.02,West,276,9.9,10.5,73,0.00,,,0.00,TxWx,2013-02-08 16:56:00,
2013-02-08 11:58:00,74.4,64.0,30.02,WNW,298,10.5,13.0,72,0.00,,,0.00,TxWx,2013-02-08 16:58:00,
2013-02-08 12:00:00,74.8,66.0,30.02,WSW,253,13.6,13.6,74,0.00,,,0.00,TxWx,2013-02-08 17:00:00,
2013-02-08 12:03:00,74.8,66.0,30.02,WSW,253,10.5,10.5,74,0.00,,,0.00,TxWx,2013-02-08 17:03:00,
2013-02-08 12:04:00,74.8,66.0,30.01,West,276,9.3,10.5,73,0.00,,,0.00,TxWx,2013-02-08 17:04:00,
2013-02-08 12:06:00,75.0,66.0,30.02,West,276,9.3,9.3,74,0.00,,,0.00,TxWx,2013-02-08 17:06:00,
2013-02-08 12:07:00,74.9,66.0,30.02,West,276,11.1,12.4,73,0.00,,,0.00,TxWx,2013-02-08 17:07:00,
2013-02-08 12:09:00,74.6,66.0,30.02,WNW,298,11.8,12.4,73,0.00,,,0.00,TxWx,2013-02-08 17:09:00,
2013-02-08 12:12:00,74.5,66.0,30.02,West,276,11.1,12.4,73,0.00,,,0.00,TxWx,2013-02-08 17:12:00,
2013-02-08 12:13:00,74.5,66.0,30.02,NW,321,10.5,10.5,73,0.00,,,0.00,TxWx,2013-02-08 17:13:00,
2013-02-08 12:15:00,74.7,66.0,30.02,WNW,298,8.0,8.0,73,0.00,,,0.00,TxWx,2013-02-08 17:15:00,
2013-02-08 12:17:00,74.6,66.0,30.01,WNW,298,9.3,11.8,73,0.00,,,0.00,TxWx,2013-02-08 17:17:00,
2013-02-08 12:18:00,74.7,66.0,30.01,WNW,298,8.7,9.3,73,0.00,,,0.00,TxWx,2013-02-08 17:18:00,
2013-02-08 12:19:00,74.5,65.0,30.01,WNW,298,8.7,8.7,73,0.00,,,0.00,TxWx,2013-02-08 17:19:00,
2013-02-08 12:20:00,74.5,65.0,30.02,NW,321,6.8,6.8,74,0.00,,,0.00,TxWx,2013-02-08 17:20:00,
2013-02-08 12:23:00,74.3,65.0,30.01,WNW,298,7.4,9.9,73,0.00,,,0.00,TxWx,2013-02-08 17:23:00,
2013-02-08 12:25:00,74.3,65.0,30.01,WNW,298,11.8,11.8,73,0.00,,,0.00,TxWx,2013-02-08 17:25:00,
2013-02-08 12:26:00,74.3,65.0,30.01,WNW,298,14.2,15.5,73,0.00,,,0.00,TxWx,2013-02-08 17:26:00,
2013-02-08 12:28:00,74.3,65.0,30.01,WNW,298,11.8,13.6,73,0.00,,,0.00,TxWx,2013-02-08 17:28:00,
2013-02-08 12:29:00,74.4,65.0,30.01,West,276,9.3,9.9,73,0.00,,,0.00,TxWx,2013-02-08 17:29:00,
2013-02-08 12:31:00,74.5,65.0,30.01,West,276,11.8,11.8,73,0.00,,,0.00,TxWx,2013-02-08 17:31:00,
2013-02-08 12:35:00,74.6,66.0,30.01,West,276,15.5,15.5,73,0.00,,,0.00,TxWx,2013-02-08 17:35:00,
2013-02-08 12:36:00,74.4,64.0,30.01,West,276,13.0,13.6,72,0.00,,,0.00,TxWx,2013-02-08 17:36:00,
2013-02-08 12:39:00,74.7,66.0,30.01,WSW,253,10.5,10.5,73,0.00,,,0.00,TxWx,2013-02-08 17:39:00,
2013-02-08 12:41:00,74.6,66.0,30.01,West,276,9.3,9.3,73,0.00,,,0.00,TxWx,2013-02-08 17:41:00,
2013-02-08 12:42:00,74.5,64.0,30.01,West,276,8.7,8.7,72,0.00,,,0.00,TxWx,2013-02-08 17:42:00,
2013-02-08 12:46:00,74.8,65.0,30.00,WSW,253,9.9,10.5,72,0.00,,,0.00,TxWx,2013-02-08 17:46:00,
2013-02-08 12:47:00,74.8,65.0,30.00,WSW,253,10.5,11.1,72,0.00,,,0.00,TxWx,2013-02-08 17:47:00,
2013-02-08 12:49:00,75.0,66.0,30.00,WSW,253,8.0,9.9,73,0.00,,,0.00,TxWx,2013-02-08 17:49:00,
2013-02-08 12:50:00,75.1,66.0,30.00,West,276,7.4,8.7,73,0.00,,,0.00,TxWx,2013-02-08 17:50:00,
2013-02-08 12:52:00,75.2,66.0,30.00,WSW,253,11.1,12.4,74,0.00,,,0.00,TxWx,2013-02-08 17:52:00,
2013-02-08 12:54:00,74.9,66.0,30.00,West,276,10.5,10.5,73,0.00,,,0.00,TxWx,2013-02-08 17:54:00,
2013-02-08 12:56:00,75.0,66.0,30.00,West,276,7.4,7.4,73,0.00,,,0.00,TxWx,2013-02-08 17:56:00,
2013-02-08 12:58:00,74.9,66.0,30.00,West,276,9.3,10.5,73,0.00,,,0.00,TxWx,2013-02-08 17:58:00,
2013-02-08 13:00:00,75.2,66.0,30.00,WNW,298,5.0,5.6,73,0.00,,,0.00,TxWx,2013-02-08 18:00:00,
2013-02-08 13:02:00,75.0,66.0,30.00,NW,321,8.0,8.7,73,0.00,,,0.00,TxWx,2013-02-08 18:02:00,
2013-02-08 13:03:00,75.3,66.0,30.00,West,276,8.7,8.7,73,0.00,,,0.00,TxWx,2013-02-08 18:03:00,
2013-02-08 13:04:00,75.4,66.0,30.00,WSW,253,9.3,9.3,74,0.00,,,0.00,TxWx,2013-02-08 18:04:00,
2013-02-08 13:07:00,75.5,66.0,30.00,West,276,8.0,8.0,73,0.00,,,0.00,TxWx,2013-02-08 18:07:00,
2013-02-08 13:08:00,75.4,66.0,30.00,WSW,253,9.3,9.3,73,0.00,,,0.00,TxWx,2013-02-08 18:08:00,
2013-02-08 13:09:00,75.5,66.0,30.00,West,276,8.7,8.7,73,0.00,,,0.00,TxWx,2013-02-08 18:09:00,
2013-02-08 13:13:00,75.6,66.0,29.99,West,276,5.6,5.6,73,0.00,,,0.00,TxWx,2013-02-08 18:13:00,
2013-02-08 13:14:00,75.3,65.0,29.99,West,276,8.0,8.0,72,0.00,,,0.00,TxWx,2013-02-08 18:14:00,
2013-02-08 13:16:00,75.2,65.0,29.99,West,276,6.8,9.3,71,0.00,,,0.00,TxWx,2013-02-08 18:16:00,
2013-02-08 13:19:00,75.3,65.0,30.00,WNW,298,8.7,8.7,71,0.00,,,0.00,TxWx,2013-02-08 18:19:00,
2013-02-08 13:20:00,75.4,65.0,29.99,West,276,9.9,11.8,72,0.00,,,0.00,TxWx,2013-02-08 18:20:00,
2013-02-08 13:21:00,75.5,65.0,30.00,WNW,298,8.0,8.0,72,0.00,,,0.00,TxWx,2013-02-08 18:21:00,
2013-02-08 13:23:00,75.4,65.0,29.99,West,276,9.9,9.9,72,0.00,,,0.00,TxWx,2013-02-08 18:23:00,
2013-02-08 13:25:00,75.3,65.0,29.99,WNW,298,8.0,9.3,72,0.00,,,0.00,TxWx,2013-02-08 18:25:00,
2013-02-08 13:26:00,75.4,65.0,29.99,West,276,8.7,8.7,72,0.00,,,0.00,TxWx,2013-02-08 18:26:00,
2013-02-08 13:27:00,75.5,66.0,29.99,West,276,8.0,8.0,72,0.00,,,0.00,TxWx,2013-02-08 18:27:00,
2013-02-08 13:28:00,75.8,66.0,29.99,WSW,253,9.3,10.5,72,0.00,,,0.00,TxWx,2013-02-08 18:28:00,
2013-02-08 13:31:00,75.8,66.0,29.99,West,276,11.8,11.8,72,0.00,,,0.00,TxWx,2013-02-08 18:31:00,
2013-02-08 13:33:00,75.7,66.0,29.99,WNW,298,9.3,11.8,71,0.00,,,0.00,TxWx,2013-02-08 18:33:00,
2013-02-08 13:34:00,75.9,66.0,29.99,West,276,10.5,10.5,71,0.00,,,0.00,TxWx,2013-02-08 18:34:00,
2013-02-08 13:37:00,75.8,65.0,29.99,West,276,11.8,12.4,70,0.00,,,0.00,TxWx,2013-02-08 18:37:00,
2013-02-08 13:38:00,75.8,65.0,29.98,West,276,11.1,11.8,69,0.00,,,0.00,TxWx,2013-02-08 18:38:00,
2013-02-08 13:39:00,75.9,65.0,29.99,West,276,11.1,13.0,70,0.00,,,0.00,TxWx,2013-02-08 18:39:00,
2013-02-08 13:41:00,75.8,65.0,29.98,West,276,12.4,12.4,70,0.00,,,0.00,TxWx,2013-02-08 18:41:00,
2013-02-08 13:44:00,75.8,65.0,29.98,WNW,298,9.3,11.1,70,0.00,,,0.00,TxWx,2013-02-08 18:44:00,
2013-02-08 13:45:00,75.7,65.0,29.98,West,276,13.6,14.2,69,0.00,,,0.00,TxWx,2013-02-08 18:45:00,
2013-02-08 13:46:00,75.9,65.0,29.98,WNW,298,11.8,13.6,70,0.00,,,0.00,TxWx,2013-02-08 18:46:00,
2013-02-08 13:47:00,76.4,65.0,29.98,WSW,253,8.0,8.0,70,0.00,,,0.00,TxWx,2013-02-08 18:47:00,
2013-02-08 13:49:00,76.3,65.0,29.98,WSW,253,6.8,6.8,69,0.00,,,0.00,TxWx,2013-02-08 18:49:00,
2013-02-08 13:50:00,76.4,65.0,29.98,WSW,253,7.4,8.7,70,0.00,,,0.00,TxWx,2013-02-08 18:50:00,
2013-02-08 13:54:00,76.4,65.0,29.98,WSW,253,9.3,9.3,68,0.00,,,0.00,TxWx,2013-02-08 18:54:00,
2013-02-08 13:55:00,76.5,65.0,29.98,West,276,9.9,10.5,69,0.00,,,0.00,TxWx,2013-02-08 18:55:00,
2013-02-08 13:56:00,76.5,65.0,29.98,WSW,253,8.0,9.3,68,0.00,,,0.00,TxWx,2013-02-08 18:56:00,
2013-02-08 14:00:00,76.2,64.0,29.98,WSW,253,9.9,9.9,68,0.00,,,0.00,TxWx,2013-02-08 19:00:00,
2013-02-08 14:01:00,76.4,64.0,29.98,West,276,6.8,7.4,68,0.00,,,0.00,TxWx,2013-02-08 19:01:00,
2013-02-08 14:02:00,76.5,64.0,29.98,WNW,298,8.0,11.8,68,0.00,,,0.00,TxWx,2013-02-08 19:02:00,
2013-02-08 14:05:00,76.8,66.0,29.98,WNW,298,9.9,9.9,68,0.00,,,0.00,TxWx,2013-02-08 19:05:00,
2013-02-08 14:08:00,76.7,65.0,29.98,West,276,13.0,14.9,67,0.00,,,0.00,TxWx,2013-02-08 19:08:00,
2013-02-08 14:10:00,77.0,65.0,29.98,WSW,253,8.7,10.5,67,0.00,,,0.00,TxWx,2013-02-08 19:10:00,
2013-02-08 14:11:00,76.7,65.0,29.98,WSW,253,10.5,12.4,66,0.00,,,0.00,TxWx,2013-02-08 19:11:00,
2013-02-08 14:12:00,77.2,65.0,29.98,WSW,253,8.0,8.0,68,0.00,,,0.00,TxWx,2013-02-08 19:12:00,
2013-02-08 14:16:00,76.8,65.0,29.97,West,276,12.4,13.6,66,0.00,,,0.00,TxWx,2013-02-08 19:16:00,
2013-02-08 14:17:00,76.8,65.0,29.97,NW,321,12.4,12.4,66,0.00,,,0.00,TxWx,2013-02-08 19:17:00,
2013-02-08 14:20:00,76.8,65.0,29.97,West,276,9.9,12.4,66,0.00,,,0.00,TxWx,2013-02-08 19:20:00,
2013-02-08 14:22:00,77.1,65.0,29.98,West,276,10.5,11.8,67,0.00,,,0.00,TxWx,2013-02-08 19:22:00,
2013-02-08 14:24:00,77.0,65.0,29.97,West,276,9.9,9.9,66,0.00,,,0.00,TxWx,2013-02-08 19:24:00,
2013-02-08 14:27:00,77.6,66.0,29.97,West,276,6.8,7.4,67,0.00,,,0.00,TxWx,2013-02-08 19:27:00,
2013-02-08 14:28:00,77.3,65.0,29.97,WSW,253,10.5,10.5,66,0.00,,,0.00,TxWx,2013-02-08 19:28:00,
2013-02-08 14:30:00,77.3,64.0,29.97,West,276,8.0,9.3,65,0.00,,,0.00,TxWx,2013-02-08 19:30:00,
2013-02-08 14:32:00,77.5,66.0,29.97,West,276,8.0,9.3,66,0.00,,,0.00,TxWx,2013-02-08 19:32:00,
2013-02-08 14:33:00,77.5,66.0,29.97,West,276,10.5,11.8,66,0.00,,,0.00,TxWx,2013-02-08 19:33:00,
2013-02-08 14:35:00,77.5,64.0,29.97,West,276,8.0,8.0,65,0.00,,,0.00,TxWx,2013-02-08 19:35:00,
2013-02-08 14:37:00,77.5,64.0,29.97,SW,231,11.1,11.8,64,0.00,,,0.00,TxWx,2013-02-08 19:37:00,
2013-02-08 14:38:00,77.6,65.0,29.97,WSW,253,8.7,11.1,65,0.00,,,0.00,TxWx,2013-02-08 19:38:00,
2013-02-08 14:40:00,77.4,64.0,29.97,WSW,253,11.1,11.1,65,0.00,,,0.00,TxWx,2013-02-08 19:40:00,
2013-02-08 14:42:00,77.5,65.0,29.97,WNW,298,8.7,8.7,65,0.00,,,0.00,TxWx,2013-02-08 19:42:00,
2013-02-08 14:43:00,77.7,65.0,29.97,WNW,298,8.7,11.8,65,0.00,,,0.00,TxWx,2013-02-08 19:43:00,
2013-02-08 14:46:00,77.8,65.0,29.97,WSW,253,8.7,8.7,64,0.00,,,0.00,TxWx,2013-02-08 19:46:00,
2013-02-08 14:49:00,78.1,64.0,29.97,WNW,298,9.3,9.3,63,0.00,,,0.00,TxWx,2013-02-08 19:49:00,
2013-02-08 14:50:00,78.4,64.0,29.97,West,276,9.9,9.9,63,0.00,,,0.00,TxWx,2013-02-08 19:50:00,
2013-02-08 14:52:00,78.6,65.0,29.97,WSW,253,9.3,10.5,62,0.00,,,0.00,TxWx,2013-02-08 19:52:00,
2013-02-08 14:53:00,78.5,63.0,29.97,WSW,253,11.8,13.6,61,0.00,,,0.00,TxWx,2013-02-08 19:53:00,
2013-02-08 14:55:00,78.6,64.0,29.97,West,276,8.7,11.1,61,0.00,,,0.00,TxWx,2013-02-08 19:55:00,
2013-02-08 14:57:00,78.8,64.0,29.97,NW,321,6.2,6.2,61,0.00,,,0.00,TxWx,2013-02-08 19:57:00,
2013-02-08 14:58:00,78.8,64.0,29.97,WNW,298,8.0,8.7,61,0.00,,,0.00,TxWx,2013-02-08 19:58:00,
2013-02-08 15:00:00,78.9,64.0,29.97,NW,321,8.0,8.7,61,0.00,,,0.00,TxWx,2013-02-08 20:00:00,
2013-02-08 15:03:00,79.3,64.0,29.97,NW,321,4.3,4.3,61,0.00,,,0.00,TxWx,2013-02-08 20:03:00,
2013-02-08 15:04:00,79.2,63.0,29.97,WNW,298,8.7,8.7,59,0.00,,,0.00,TxWx,2013-02-08 20:04:00,
2013-02-08 15:06:00,79.2,62.0,29.96,NW,321,5.0,5.0,57,0.00,,,0.00,TxWx,2013-02-08 20:06:00,
2013-02-08 15:07:00,79.1,62.0,29.96,WNW,298,9.3,11.8,56,0.00,,,0.00,TxWx,2013-02-08 20:07:00,
2013-02-08 15:08:00,79.3,62.0,29.96,WNW,298,6.8,6.8,56,0.00,,,0.00,TxWx,2013-02-08 20:08:00,
2013-02-08 15:10:00,79.4,61.0,29.96,NW,321,12.4,12.4,55,0.00,,,0.00,TxWx,2013-02-08 20:10:00,
2013-02-08 15:11:00,79.4,61.0,29.96,West,276,13.0,13.0,54,0.00,,,0.00,TxWx,2013-02-08 20:11:00,
2013-02-08 15:13:00,79.3,61.0,29.96,NW,321,10.5,11.8,54,0.00,,,0.00,TxWx,2013-02-08 20:13:00,
2013-02-08 15:14:00,79.3,61.0,29.96,WNW,298,9.3,9.3,54,0.00,,,0.00,TxWx,2013-02-08 20:14:00,
2013-02-08 15:17:00,79.5,60.0,29.96,NW,321,10.5,10.5,53,0.00,,,0.00,TxWx,2013-02-08 20:17:00,
2013-02-08 15:18:00,79.5,61.0,29.96,WNW,298,6.2,6.8,52,0.00,,,0.00,TxWx,2013-02-08 20:18:00,
2013-02-08 15:22:00,79.5,60.0,29.96,WNW,298,10.5,10.5,53,0.00,,,0.00,TxWx,2013-02-08 20:22:00,
2013-02-08 15:24:00,79.6,60.0,29.95,West,276,6.8,8.0,52,0.00,,,0.00,TxWx,2013-02-08 20:24:00,
2013-02-08 15:26:00,79.7,61.0,29.95,NW,321,6.2,6.2,52,0.00,,,0.00,TxWx,2013-02-08 20:26:00,
2013-02-08 15:27:00,79.7,61.0,29.95,WNW,298,9.9,9.9,52,0.00,,,0.00,TxWx,2013-02-08 20:27:00,
2013-02-08 15:30:00,79.7,60.0,29.95,WNW,298,8.0,9.3,52,0.00,,,0.00,TxWx,2013-02-08 20:30:00,
2013-02-08 15:32:00,79.8,60.0,29.95,NNW,343,5.6,6.8,52,0.00,,,0.00,TxWx,2013-02-08 20:32:00,
2013-02-08 15:33:00,79.8,60.0,29.95,WNW,298,4.3,5.0,52,0.00,,,0.00,TxWx,2013-02-08 20:33:00,
2013-02-08 15:35:00,79.8,60.0,29.95,WNW,298,5.0,5.0,51,0.00,,,0.00,TxWx,2013-02-08 20:35:00,
2013-02-08 15:37:00,79.9,61.0,29.95,NW,321,3.1,3.1,52,0.00,,,0.00,TxWx,2013-02-08 20:37:00,
2013-02-08 15:38:00,79.9,61.0,29.95,NW,321,7.4,7.4,53,0.00,,,0.00,TxWx,2013-02-08 20:38:00,
2013-02-08 15:40:00,79.8,60.0,29.95,West,276,5.0,5.6,51,0.00,,,0.00,TxWx,2013-02-08 20:40:00,
2013-02-08 15:44:00,79.6,60.0,29.95,NW,321,9.3,9.9,51,0.00,,,0.00,TxWx,2013-02-08 20:44:00,
2013-02-08 15:46:00,79.8,60.0,29.95,NW,321,6.2,6.8,51,0.00,,,0.00,TxWx,2013-02-08 20:46:00,
2013-02-08 15:48:00,79.9,60.0,29.95,WNW,298,5.6,5.6,50,0.00,,,0.00,TxWx,2013-02-08 20:48:00,
2013-02-08 15:51:00,79.6,60.0,29.95,NW,321,5.0,5.0,51,0.00,,,0.00,TxWx,2013-02-08 20:51:00,
2013-02-08 15:52:00,79.6,59.0,29.95,WNW,298,9.9,10.5,49,0.00,,,0.00,TxWx,2013-02-08 20:52:00,
2013-02-08 15:55:00,79.8,59.0,29.95,WNW,298,7.4,8.0,50,0.00,,,0.00,TxWx,2013-02-08 20:55:00,
2013-02-08 15:57:00,79.6,60.0,29.95,NW,321,6.8,9.9,51,0.00,,,0.00,TxWx,2013-02-08 20:57:00,
2013-02-08 16:00:00,79.7,58.0,29.95,WNW,298,9.9,11.1,48,0.00,,,0.00,TxWx,2013-02-08 21:00:00,
2013-02-08 16:01:00,79.6,58.0,29.95,NW,321,13.0,13.6,47,0.00,,,0.00,TxWx,2013-02-08 21:01:00,
2013-02-08 16:02:00,79.7,58.0,29.95,West,276,14.9,14.9,47,0.00,,,0.00,TxWx,2013-02-08 21:02:00,
2013-02-08 16:04:00,79.6,59.0,29.95,WNW,298,6.2,8.0,50,0.00,,,0.00,TxWx,2013-02-08 21:04:00,
2013-02-08 16:07:00,79.7,58.0,29.95,WNW,298,6.8,9.3,48,0.00,,,0.00,TxWx,2013-02-08 21:07:00,
2013-02-08 16:08:00,79.9,58.0,29.95,NW,321,8.0,8.0,48,0.00,,,0.00,TxWx,2013-02-08 21:08:00,
2013-02-08 16:10:00,80.0,59.0,29.95,WNW,298,6.8,6.8,49,0.00,,,0.00,TxWx,2013-02-08 21:10:00,
2013-02-08 16:13:00,80.1,58.0,29.95,NW,321,6.2,6.8,48,0.00,,,0.00,TxWx,2013-02-08 21:13:00,
2013-02-08 16:16:00,80.2,58.0,29.95,NW,321,7.4,7.4,48,0.00,,,0.00,TxWx,2013-02-08 21:16:00,
2013-02-08 16:17:00,80.2,58.0,29.96,NW,321,5.6,6.2,48,0.00,,,0.00,TxWx,2013-02-08 21:17:00,
2013-02-08 16:18:00,80.2,59.0,29.96,West,276,6.2,6.2,49,0.00,,,0.00,TxWx,2013-02-08 21:18:00,
2013-02-08 16:19:00,80.2,58.0,29.96,WNW,298,5.0,5.0,48,0.00,,,0.00,TxWx,2013-02-08 21:19:00,
2013-02-08 16:21:00,80.1,58.0,29.96,NW,321,6.8,8.7,48,0.00,,,0.00,TxWx,2013-02-08 21:21:00,
2013-02-08 16:24:00,80.2,58.0,29.96,WNW,298,4.3,5.0,48,0.00,,,0.00,TxWx,2013-02-08 21:24:00,
2013-02-08 16:27:00,80.3,58.0,29.96,NNW,343,5.0,5.0,48,0.00,,,0.00,TxWx,2013-02-08 21:27:00,
2013-02-08 16:29:00,80.3,57.0,29.96,NW,321,7.4,7.4,46,0.00,,,0.00,TxWx,2013-02-08 21:29:00,
2013-02-08 16:30:00,80.3,57.0,29.96,WNW,298,10.5,10.5,45,0.00,,,0.00,TxWx,2013-02-08 21:30:00,
2013-02-08 16:33:00,80.4,59.0,29.96,WNW,298,5.6,5.6,49,0.00,,,0.00,TxWx,2013-02-08 21:33:00,
2013-02-08 16:34:00,80.1,59.0,29.96,NW,321,5.6,5.6,49,0.00,,,0.00,TxWx,2013-02-08 21:34:00,
2013-02-08 16:35:00,80.2,59.0,29.96,WNW,298,6.2,6.2,49,0.00,,,0.00,TxWx,2013-02-08 21:35:00,
2013-02-08 16:38:00,80.3,57.0,29.96,WNW,298,8.0,8.0,46,0.00,,,0.00,TxWx,2013-02-08 21:38:00,
2013-02-08 16:40:00,80.2,58.0,29.96,NW,321,8.0,8.7,47,0.00,,,0.00,TxWx,2013-02-08 21:40:00,
2013-02-08 16:41:00,80.1,58.0,29.96,WNW,298,8.0,8.0,48,0.00,,,0.00,TxWx,2013-02-08 21:41:00,
2013-02-08 16:43:00,80.1,57.0,29.96,NW,321,8.0,8.0,46,0.00,,,0.00,TxWx,2013-02-08 21:43:00,
2013-02-08 16:46:00,80.2,59.0,29.96,WNW,298,5.0,5.6,49,0.00,,,0.00,TxWx,2013-02-08 21:46:00,
2013-02-08 16:49:00,80.3,58.0,29.96,NW,321,3.1,3.7,48,0.00,,,0.00,TxWx,2013-02-08 21:49:00,
2013-02-08 16:51:00,80.3,57.0,29.96,West,276,6.2,6.8,46,0.00,,,0.00,TxWx,2013-02-08 21:51:00,
2013-02-08 16:52:00,80.3,58.0,29.97,NW,321,4.3,4.3,47,0.00,,,0.00,TxWx,2013-02-08 21:52:00,
2013-02-08 16:54:00,80.3,58.0,29.96,West,276,6.8,6.8,47,0.00,,,0.00,TxWx,2013-02-08 21:54:00,
2013-02-08 16:57:00,80.4,58.0,29.96,NW,321,4.3,5.0,47,0.00,,,0.00,TxWx,2013-02-08 21:57:00,
2013-02-08 16:58:00,80.4,58.0,29.96,NW,321,3.7,3.7,48,0.00,,,0.00,TxWx,2013-02-08 21:58:00,
2013-02-08 16:59:00,80.4,58.0,29.96,NW,321,5.0,5.0,47,0.00,,,0.00,TxWx,2013-02-08 21:59:00,
2013-02-08 17:01:00,80.3,58.0,29.96,NW,321,5.0,5.0,48,0.00,,,0.00,TxWx,2013-02-08 22:01:00,
2013-02-08 17:02:00,80.3,57.0,29.97,WNW,298,8.7,8.7,46,0.00,,,0.00,TxWx,2013-02-08 22:02:00,
2013-02-08 17:04:00,80.2,58.0,29.96,WNW,298,5.0,5.0,47,0.00,,,0.00,TxWx,2013-02-08 22:04:00,
2013-02-08 17:05:00,80.1,58.0,29.97,WNW,298,4.3,5.0,48,0.00,,,0.00,TxWx,2013-02-08 22:05:00,
2013-02-08 17:08:00,80.2,58.0,29.97,WNW,298,6.2,7.4,47,0.00,,,0.00,TxWx,2013-02-08 22:08:00,
2013-02-08 17:10:00,80.1,59.0,29.97,WNW,298,5.6,5.6,49,0.00,,,0.00,TxWx,2013-02-08 22:10:00,
2013-02-08 17:11:00,80.1,58.0,29.97,North,6,4.3,4.3,48,0.00,,,0.00,TxWx,2013-02-08 22:11:00,
2013-02-08 17:13:00,80.0,58.0,29.97,WNW,298,3.1,3.1,48,0.00,,,0.00,TxWx,2013-02-08 22:13:00,
2013-02-08 17:16:00,80.1,58.0,29.97,WNW,298,3.7,3.7,48,0.00,,,0.00,TxWx,2013-02-08 22:16:00,
2013-02-08 17:17:00,80.0,58.0,29.97,NW,321,4.3,5.0,47,0.00,,,0.00,TxWx,2013-02-08 22:17:00,
2013-02-08 17:18:00,80.1,58.0,29.97,NW,321,3.7,3.7,47,0.00,,,0.00,TxWx,2013-02-08 22:18:00,
2013-02-08 17:21:00,80.0,58.0,29.97,NW,321,4.3,6.2,47,0.00,,,0.00,TxWx,2013-02-08 22:21:00,
2013-02-08 17:22:00,80.0,58.0,29.97,WNW,298,4.3,5.0,47,0.00,,,0.00,TxWx,2013-02-08 22:22:00,
2013-02-08 17:24:00,80.0,59.0,29.97,NW,321,3.7,4.3,49,0.00,,,0.00,TxWx,2013-02-08 22:24:00,
2013-02-08 17:26:00,79.7,60.0,29.98,West,276,3.1,3.1,51,0.00,,,0.00,TxWx,2013-02-08 22:26:00,
2013-02-08 17:28:00,79.7,58.0,29.98,NNW,343,3.1,3.1,48,0.00,,,0.00,TxWx,2013-02-08 22:28:00,
2013-02-08 17:30:00,79.7,58.0,29.98,NW,321,5.6,6.8,47,0.00,,,0.00,TxWx,2013-02-08 22:30:00,
2013-02-08 17:31:00,79.8,58.0,29.98,WNW,298,4.3,4.3,47,0.00,,,0.00,TxWx,2013-02-08 22:31:00,
2013-02-08 17:32:00,79.7,58.0,29.98,NW,321,6.2,6.2,47,0.00,,,0.00,TxWx,2013-02-08 22:32:00,
2013-02-08 17:35:00,79.6,58.0,29.98,NW,321,2.5,3.7,48,0.00,,,0.00,TxWx,2013-02-08 22:35:00,
2013-02-08 17:36:00,79.6,58.0,29.98,NW,321,4.3,5.6,47,0.00,,,0.00,TxWx,2013-02-08 22:36:00,
2013-02-08 17:39:00,79.5,58.0,29.98,NW,321,3.7,3.7,48,0.00,,,0.00,TxWx,2013-02-08 22:39:00,
2013-02-08 17:40:00,79.4,58.0,29.98,NW,321,4.3,4.3,49,0.00,,,0.00,TxWx,2013-02-08 22:40:00,
2013-02-08 17:41:00,79.4,57.0,29.98,NW,321,5.0,5.0,47,0.00,,,0.00,TxWx,2013-02-08 22:41:00,
2013-02-08 17:43:00,79.5,58.0,29.98,NNW,343,4.3,4.3,48,0.00,,,0.00,TxWx,2013-02-08 22:43:00,
2013-02-08 17:46:00,79.5,57.0,29.98,NNW,343,1.9,2.5,48,0.00,,,0.00,TxWx,2013-02-08 22:46:00,
2013-02-08 17:48:00,79.4,58.0,29.98,North,6,2.5,2.5,50,0.00,,,0.00,TxWx,2013-02-08 22:48:00,
2013-02-08 17:51:00,78.4,62.0,29.98,NNE,28,3.1,3.1,58,0.00,,,0.00,TxWx,2013-02-08 22:51:00,
2013-02-08 17:52:00,78.3,62.0,29.98,NE,51,1.2,1.2,58,0.00,,,0.00,TxWx,2013-02-08 22:52:00,
2013-02-08 17:54:00,78.1,63.0,29.98,NE,51,1.9,2.5,60,0.00,,,0.00,TxWx,2013-02-08 22:54:00,
2013-02-08 17:55:00,78.1,63.0,29.98,WSW,253,0.6,1.2,61,0.00,,,0.00,TxWx,2013-02-08 22:55:00,
2013-02-08 17:57:00,77.6,63.0,29.98,ENE,73,4.3,4.3,61,0.00,,,0.00,TxWx,2013-02-08 22:57:00,
2013-02-08 17:58:00,77.3,63.0,29.98,NE,51,7.4,7.4,62,0.00,,,0.00,TxWx,2013-02-08 22:58:00,
2013-02-08 18:01:00,77.2,63.0,29.98,NW,321,3.1,3.1,62,0.00,,,0.00,TxWx,2013-02-08 23:01:00,
2013-02-08 18:02:00,77.2,63.0,29.98,North,6,2.5,3.1,62,0.00,,,0.00,TxWx,2013-02-08 23:02:00,
2013-02-08 18:05:00,77.3,62.0,29.98,WNW,298,1.2,1.9,61,0.00,,,0.00,TxWx,2013-02-08 23:05:00,
2013-02-08 18:07:00,77.3,64.0,29.98,ENE,73,5.0,5.6,64,0.00,,,0.00,TxWx,2013-02-08 23:07:00,
2013-02-08 18:08:00,77.1,64.0,29.98,NNE,28,4.3,5.0,64,0.00,,,0.00,TxWx,2013-02-08 23:08:00,
2013-02-08 18:11:00,77.0,64.0,29.98,NNW,343,2.5,2.5,65,0.00,,,0.00,TxWx,2013-02-08 23:11:00,
2013-02-08 18:12:00,77.0,65.0,29.98,North,6,1.9,2.5,66,0.00,,,0.00,TxWx,2013-02-08 23:12:00,
2013-02-08 18:13:00,76.9,65.0,29.98,NNW,343,2.5,3.1,66,0.00,,,0.00,TxWx,2013-02-08 23:13:00,
2013-02-08 18:14:00,76.9,65.0,29.98,East,96,3.7,3.7,66,0.00,,,0.00,TxWx,2013-02-08 23:14:00,
2013-02-08 18:19:00,76.5,65.0,29.98,SW,231,1.9,2.5,67,0.00,,,0.00,TxWx,2013-02-08 23:19:00,
2013-02-08 18:22:00,76.5,66.0,29.99,NNE,28,3.7,3.7,68,0.00,,,0.00,TxWx,2013-02-08 23:22:00,
2013-02-08 18:24:00,76.6,66.0,29.98,WSW,253,1.2,1.9,69,0.00,,,0.00,TxWx,2013-02-08 23:24:00,
2013-02-08 18:25:00,76.6,66.0,29.98,South,186,0.6,0.6,69,0.00,,,0.00,TxWx,2013-02-08 23:25:00,
2013-02-08 18:27:00,76.7,66.0,29.98,NNW,343,1.9,3.1,69,0.00,,,0.00,TxWx,2013-02-08 23:27:00,
2013-02-08 18:30:00,76.6,66.0,29.99,NE,51,3.1,3.1,70,0.00,,,0.00,TxWx,2013-02-08 23:30:00,
2013-02-08 18:31:00,76.4,65.0,29.99,ENE,73,3.1,3.1,70,0.00,,,0.00,TxWx,2013-02-08 23:31:00,
2013-02-08 18:32:00,76.4,65.0,29.99,NE,51,4.3,4.3,70,0.00,,,0.00,TxWx,2013-02-08 23:32:00,
2013-02-08 18:33:00,76.3,65.0,29.99,ENE,73,3.1,3.7,70,0.00,,,0.00,TxWx,2013-02-08 23:33:00,
2013-02-08 18:35:00,76.4,65.0,29.99,NE,51,2.5,2.5,70,0.00,,,0.00,TxWx,2013-02-08 23:35:00,
2013-02-08 18:39:00,75.8,65.0,29.99,East,96,3.1,3.1,70,0.00,,,0.00,TxWx,2013-02-08 23:39:00,
2013-02-08 18:41:00,75.8,65.0,29.99,NNE,28,3.1,3.1,70,0.00,,,0.00,TxWx,2013-02-08 23:41:00,
2013-02-08 18:44:00,76.2,66.0,29.99,SE,141,1.9,1.9,71,0.00,,,0.00,TxWx,2013-02-08 23:44:00,
2013-02-08 18:46:00,76.5,66.0,29.99,SW,231,1.9,1.9,71,0.00,,,0.00,TxWx,2013-02-08 23:46:00,
2013-02-08 18:47:00,76.4,66.0,30.00,North,6,3.1,3.1,71,0.00,,,0.00,TxWx,2013-02-08 23:47:00,
2013-02-08 18:49:00,76.3,66.0,29.99,ENE,73,4.3,5.6,71,0.00,,,0.00,TxWx,2013-02-08 23:49:00,
2013-02-08 18:51:00,76.4,66.0,30.00,NE,51,3.7,4.3,71,0.00,,,0.00,TxWx,2013-02-08 23:51:00,
2013-02-08 18:52:00,76.4,66.0,29.99,NE,51,4.3,4.3,72,0.00,,,0.00,TxWx,2013-02-08 23:52:00,
2013-02-08 18:54:00,76.4,66.0,29.99,NE,51,5.0,6.2,72,0.00,,,0.00,TxWx,2013-02-08 23:54:00,
2013-02-08 18:57:00,76.2,66.0,30.00,NE,51,3.7,3.7,72,0.00,,,0.00,TxWx,2013-02-08 23:57:00,
2013-02-08 19:00:00,76.0,66.0,30.00,North,6,4.3,5.0,73,0.00,,,0.00,TxWx,2013-02-09 00:00:00,
2013-02-08 19:03:00,76.0,66.0,30.00,NE,51,4.3,4.3,73,0.00,,,0.00,TxWx,2013-02-09 00:03:00,
2013-02-08 19:05:00,76.0,67.0,30.00,ESE,118,1.9,1.9,73,0.00,,,0.00,TxWx,2013-02-09 00:05:00,
2013-02-08 19:06:00,76.0,67.0,30.00,NNE,28,3.1,3.1,73,0.00,,,0.00,TxWx,2013-02-09 00:06:00,
2013-02-08 19:09:00,76.1,67.0,30.00,ENE,73,1.9,1.9,74,0.00,,,0.00,TxWx,2013-02-09 00:09:00,
2013-02-08 19:10:00,75.8,67.0,30.00,NE,51,3.1,3.7,74,0.00,,,0.00,TxWx,2013-02-09 00:10:00,
2013-02-08 19:11:00,75.9,67.0,30.00,NE,51,3.1,3.1,74,0.00,,,0.00,TxWx,2013-02-09 00:11:00,
2013-02-08 19:13:00,75.8,67.0,30.00,ENE,73,2.5,2.5,74,0.00,,,0.00,TxWx,2013-02-09 00:13:00,
2013-02-08 19:14:00,75.8,67.0,30.00,East,96,1.9,1.9,74,0.00,,,0.00,TxWx,2013-02-09 00:14:00,
2013-02-08 19:16:00,75.7,67.0,30.00,East,96,2.5,3.1,74,0.00,,,0.00,TxWx,2013-02-09 00:16:00,
2013-02-08 19:19:00,75.9,67.0,30.00,NNE,28,4.3,4.3,75,0.00,,,0.00,TxWx,2013-02-09 00:19:00,
2013-02-08 19:20:00,75.7,67.0,30.00,NNW,343,2.5,3.1,75,0.00,,,0.00,TxWx,2013-02-09 00:20:00,
2013-02-08 19:21:00,75.6,67.0,30.01,East,96,3.1,3.1,75,0.00,,,0.00,TxWx,2013-02-09 00:21:00,
2013-02-08 19:25:00,75.4,67.0,30.01,East,96,3.1,3.1,76,0.00,,,0.00,TxWx,2013-02-09 00:25:00,
2013-02-08 19:26:00,75.4,67.0,30.01,NE,51,4.3,5.0,76,0.00,,,0.00,TxWx,2013-02-09 00:26:00,
2013-02-08 19:27:00,75.4,67.0,30.01,East,96,1.2,1.9,76,0.00,,,0.00,TxWx,2013-02-09 00:27:00,
2013-02-08 19:30:00,75.4,67.0,30.01,ENE,73,3.7,3.7,76,0.00,,,0.00,TxWx,2013-02-09 00:30:00,
2013-02-08 19:31:00,75.2,67.0,30.01,ESE,118,3.1,3.1,76,0.00,,,0.00,TxWx,2013-02-09 00:31:00,
2013-02-08 19:32:00,75.3,67.0,30.01,East,96,3.7,4.3,76,0.00,,,0.00,TxWx,2013-02-09 00:32:00,
2013-02-08 19:33:00,75.3,67.0,30.01,ENE,73,2.5,2.5,76,0.00,,,0.00,TxWx,2013-02-09 00:33:00,
2013-02-08 19:36:00,75.1,67.0,30.00,East,96,3.7,3.7,76,0.00,,,0.00,TxWx,2013-02-09 00:36:00,
2013-02-08 19:38:00,75.2,67.0,30.01,ENE,73,2.5,3.1,76,0.00,,,0.00,TxWx,2013-02-09 00:38:00,
2013-02-08 19:40:00,75.1,67.0,30.01,NE,51,3.7,3.7,77,0.00,,,0.00,TxWx,2013-02-09 00:40:00,
2013-02-08 19:42:00,75.0,67.0,30.01,East,96,3.1,4.3,76,0.00,,,0.00,TxWx,2013-02-09 00:42:00,
2013-02-08 19:43:00,75.1,67.0,30.01,SE,141,2.5,2.5,76,0.00,,,0.00,TxWx,2013-02-09 00:43:00,
2013-02-08 19:44:00,75.2,67.0,30.01,ENE,73,3.1,3.7,77,0.00,,,0.00,TxWx,2013-02-09 00:44:00,
2013-02-08 19:45:00,75.2,67.0,30.01,ENE,73,5.6,5.6,77,0.00,,,0.00,TxWx,2013-02-09 00:45:00,
2013-02-08 19:47:00,75.3,67.0,30.01,NE,51,3.7,3.7,77,0.00,,,0.00,TxWx,2013-02-09 00:47:00,
2013-02-08 19:50:00,74.9,67.0,30.01,SE,141,4.3,5.6,76,0.00,,,0.00,TxWx,2013-02-09 00:50:00,
2013-02-08 19:51:00,75.3,67.0,30.01,East,96,4.3,4.3,76,0.00,,,0.00,TxWx,2013-02-09 00:51:00,
2013-02-08 19:53:00,75.1,67.0,30.01,East,96,7.4,7.4,76,0.00,,,0.00,TxWx,2013-02-09 00:53:00,
2013-02-08 19:55:00,75.1,67.0,30.02,ENE,73,5.6,5.6,76,0.00,,,0.00,TxWx,2013-02-09 00:55:00,
2013-02-08 19:56:00,75.1,67.0,30.02,East,96,6.2,6.2,76,0.00,,,0.00,TxWx,2013-02-09 00:56:00,
2013-02-08 19:57:00,75.1,67.0,30.01,ENE,73,3.7,3.7,76,0.00,,,0.00,TxWx,2013-02-09 00:57:00,
2013-02-08 19:58:00,75.2,67.0,30.02,ENE,73,2.5,3.1,76,0.00,,,0.00,TxWx,2013-02-09 00:58:00,
2013-02-08 20:00:00,75.1,67.0,30.02,NNE,28,3.7,3.7,76,0.00,,,0.00,TxWx,2013-02-09 01:00:00,
2013-02-08 20:01:00,75.1,67.0,30.02,East,96,4.3,4.3,76,0.00,,,0.00,TxWx,2013-02-09 01:01:00,
2013-02-08 20:04:00,75.2,67.0,30.01,ENE,73,3.1,3.1,76,0.00,,,0.00,TxWx,2013-02-09 01:04:00,
2013-02-08 20:07:00,75.1,67.0,30.01,NE,51,2.5,2.5,75,0.00,,,0.00,TxWx,2013-02-09 01:07:00,
2013-02-08 20:09:00,75.2,67.0,30.02,ENE,73,2.5,3.1,75,0.00,,,0.00,TxWx,2013-02-09 01:09:00,
2013-02-08 20:12:00,75.0,67.0,30.01,East,96,4.3,4.3,75,0.00,,,0.00,TxWx,2013-02-09 01:12:00,
2013-02-08 20:13:00,75.1,67.0,30.01,East,96,4.3,4.3,75,0.00,,,0.00,TxWx,2013-02-09 01:13:00,
2013-02-08 20:14:00,75.0,66.0,30.01,ENE,73,3.1,3.7,75,0.00,,,0.00,TxWx,2013-02-09 01:14:00,
2013-02-08 20:15:00,75.0,66.0,30.01,East,96,3.1,3.7,75,0.00,,,0.00,TxWx,2013-02-09 01:15:00,
2013-02-08 20:19:00,75.5,67.0,30.02,ENE,73,4.3,5.0,76,0.00,,,0.00,TxWx,2013-02-09 01:19:00,
2013-02-08 20:20:00,75.5,67.0,30.02,East,96,4.3,4.3,76,0.00,,,0.00,TxWx,2013-02-09 01:20:00,
2013-02-08 20:24:00,75.3,67.0,30.02,ESE,118,4.3,4.3,77,0.00,,,0.00,TxWx,2013-02-09 01:24:00,
2013-02-08 20:25:00,75.1,67.0,30.02,NE,51,6.2,6.2,76,0.00,,,0.00,TxWx,2013-02-09 01:25:00,
2013-02-08 20:26:00,75.1,67.0,30.02,NE,51,3.7,5.0,76,0.00,,,0.00,TxWx,2013-02-09 01:26:00,
2013-02-08 20:29:00,75.0,67.0,30.02,East,96,6.2,6.2,76,0.00,,,0.00,TxWx,2013-02-09 01:29:00,
2013-02-08 20:31:00,75.2,67.0,30.02,East,96,4.3,4.3,76,0.00,,,0.00,TxWx,2013-02-09 01:31:00,
2013-02-08 20:37:00,75.1,67.0,30.02,ESE,118,5.6,6.2,75,0.00,,,0.00,TxWx,2013-02-09 01:37:00,
2013-02-08 20:38:00,75.3,67.0,30.02,East,96,5.0,5.0,75,0.00,,,0.00,TxWx,2013-02-09 01:38:00,
2013-02-08 20:39:00,75.4,67.0,30.02,ESE,118,4.3,4.3,75,0.00,,,0.00,TxWx,2013-02-09 01:39:00,
2013-02-08 20:42:00,75.5,67.0,30.02,ESE,118,4.3,4.3,75,0.00,,,0.00,TxWx,2013-02-09 01:42:00,
2013-02-08 20:45:00,75.5,67.0,30.02,East,96,4.3,5.0,76,0.00,,,0.00,TxWx,2013-02-09 01:45:00,
2013-02-08 20:47:00,75.6,68.0,30.02,ENE,73,4.3,5.6,76,0.00,,,0.00,TxWx,2013-02-09 01:47:00,
2013-02-08 20:51:00,75.4,67.0,30.03,East,96,4.3,4.3,76,0.00,,,0.00,TxWx,2013-02-09 01:51:00,
2013-02-08 20:53:00,75.7,68.0,30.02,East,96,5.6,5.6,77,0.00,,,0.00,TxWx,2013-02-09 01:53:00,
2013-02-08 20:54:00,75.1,67.0,30.02,ESE,118,5.6,5.6,76,0.00,,,0.00,TxWx,2013-02-09 01:54:00,
2013-02-08 20:58:00,75.4,67.0,30.03,ESE,118,5.0,5.0,76,0.00,,,0.00,TxWx,2013-02-09 01:58:00,
2013-02-08 20:59:00,75.4,67.0,30.03,East,96,5.6,5.6,76,0.00,,,0.00,TxWx,2013-02-09 01:59:00,
2013-02-08 21:00:00,75.7,68.0,30.03,ESE,118,4.3,4.3,76,0.00,,,0.00,TxWx,2013-02-09 02:00:00,
2013-02-08 21:03:00,75.5,67.0,30.03,ESE,118,5.6,6.2,76,0.00,,,0.00,TxWx,2013-02-09 02:03:00,
2013-02-08 21:04:00,75.4,67.0,30.03,ESE,118,5.6,5.6,76,0.00,,,0.00,TxWx,2013-02-09 02:04:00,
2013-02-08 21:05:00,75.7,68.0,30.03,East,96,5.0,5.6,76,0.00,,,0.00,TxWx,2013-02-09 02:05:00,
2013-02-08 21:08:00,75.6,68.0,30.03,East,96,7.4,8.0,76,0.00,,,0.00,TxWx,2013-02-09 02:08:00,
2013-02-08 21:11:00,75.7,68.0,30.03,East,96,5.6,6.2,77,0.00,,,0.00,TxWx,2013-02-09 02:11:00,
2013-02-08 21:12:00,75.6,68.0,30.03,ESE,118,5.6,6.2,77,0.00,,,0.00,TxWx,2013-02-09 02:12:00,
2013-02-08 21:14:00,75.4,67.0,30.03,ESE,118,4.3,4.3,76,0.00,,,0.00,TxWx,2013-02-09 02:14:00,
2013-02-08 21:16:00,75.4,67.0,30.03,East,96,6.8,6.8,77,0.00,,,0.00,TxWx,2013-02-09 02:16:00,
2013-02-08 21:18:00,75.3,67.0,30.03,ESE,118,5.6,5.6,77,0.00,,,0.00,TxWx,2013-02-09 02:18:00,
2013-02-08 21:19:00,75.6,68.0,30.03,ESE,118,5.6,5.6,77,0.00,,,0.00,TxWx,2013-02-09 02:19:00,
2013-02-08 21:22:00,75.1,67.0,30.03,ESE,118,5.6,6.8,77,0.00,,,0.00,TxWx,2013-02-09 02:22:00,
2013-02-08 21:23:00,75.2,67.0,30.03,ESE,118,5.6,5.6,77,0.00,,,0.00,TxWx,2013-02-09 02:23:00,
2013-02-08 21:24:00,75.3,67.0,30.03,East,96,5.6,6.2,77,0.00,,,0.00,TxWx,2013-02-09 02:24:00,
2013-02-08 21:25:00,75.1,67.0,30.03,East,96,5.0,5.0,77,0.00,,,0.00,TxWx,2013-02-09 02:25:00,
2013-02-08 21:30:00,75.2,67.0,30.03,East,96,5.6,5.6,76,0.00,,,0.00,TxWx,2013-02-09 02:30:00,
2013-02-08 21:32:00,75.4,67.0,30.03,SE,141,4.3,4.3,76,0.00,,,0.00,TxWx,2013-02-09 02:32:00,
2013-02-08 21:35:00,75.4,67.0,30.04,East,96,4.3,4.3,76,0.00,,,0.00,TxWx,2013-02-09 02:35:00,
2013-02-08 21:37:00,75.4,67.0,30.04,ESE,118,3.7,5.0,76,0.00,,,0.00,TxWx,2013-02-09 02:37:00,
2013-02-08 21:38:00,75.2,67.0,30.04,ESE,118,4.3,5.6,76,0.00,,,0.00,TxWx,2013-02-09 02:38:00,
2013-02-08 21:40:00,75.4,67.0,30.04,ESE,118,4.3,5.0,76,0.00,,,0.00,TxWx,2013-02-09 02:40:00,
2013-02-08 21:43:00,75.6,68.0,30.04,ESE,118,5.6,5.6,76,0.00,,,0.00,TxWx,2013-02-09 02:43:00,
2013-02-08 21:45:00,75.5,68.0,30.04,ESE,118,5.6,5.6,76,0.00,,,0.00,TxWx,2013-02-09 02:45:00,
2013-02-08 21:46:00,75.3,67.0,30.03,ESE,118,5.0,6.2,76,0.00,,,0.00,TxWx,2013-02-09 02:46:00,
2013-02-08 21:48:00,75.6,68.0,30.03,ESE,118,5.0,5.0,77,0.00,,,0.00,TxWx,2013-02-09 02:48:00,
2013-02-08 21:50:00,75.4,67.0,30.04,ESE,118,5.0,5.0,77,0.00,,,0.00,TxWx,2013-02-09 02:50:00,
2013-02-08 21:51:00,75.3,67.0,30.04,East,96,5.6,6.2,77,0.00,,,0.00,TxWx,2013-02-09 02:51:00,
2013-02-08 21:52:00,75.5,68.0,30.04,ESE,118,5.6,5.6,77,0.00,,,0.00,TxWx,2013-02-09 02:52:00,
2013-02-08 21:53:00,75.5,67.0,30.04,ESE,118,5.6,5.6,78,0.00,,,0.00,TxWx,2013-02-09 02:53:00,
2013-02-08 21:55:00,75.4,67.0,30.04,East,96,6.2,6.2,78,0.00,,,0.00,TxWx,2013-02-09 02:55:00,
2013-02-08 21:56:00,75.4,68.0,30.04,ESE,118,4.3,5.0,78,0.00,,,0.00,TxWx,2013-02-09 02:56:00,
2013-02-08 21:59:00,75.1,68.0,30.04,SE,141,5.6,5.6,78,0.00,,,0.00,TxWx,2013-02-09 02:59:00,
2013-02-08 22:00:00,75.1,68.0,30.04,SE,141,5.0,6.2,78,0.00,,,0.00,TxWx,2013-02-09 03:00:00,
2013-02-08 22:01:00,75.0,68.0,30.04,ESE,118,5.6,6.2,78,0.00,,,0.00,TxWx,2013-02-09 03:01:00,
2013-02-08 22:02:00,75.2,68.0,30.04,SE,141,5.6,6.2,78,0.00,,,0.00,TxWx,2013-02-09 03:02:00,
2013-02-08 22:06:00,75.1,68.0,30.04,ESE,118,5.6,5.6,79,0.00,,,0.00,TxWx,2013-02-09 03:06:00,
2013-02-08 22:07:00,75.2,68.0,30.04,SSE,163,6.2,6.2,79,0.00,,,0.00,TxWx,2013-02-09 03:07:00,
2013-02-08 22:08:00,75.0,68.0,30.04,SE,141,5.6,5.6,79,0.00,,,0.00,TxWx,2013-02-09 03:08:00,
2013-02-08 22:11:00,75.1,68.0,30.04,SE,141,5.6,5.6,79,0.00,,,0.00,TxWx,2013-02-09 03:11:00,
2013-02-08 22:12:00,75.1,68.0,30.04,SE,141,5.6,5.6,79,0.00,,,0.00,TxWx,2013-02-09 03:12:00,
2013-02-08 22:14:00,75.2,68.0,30.04,ESE,118,5.0,5.6,79,0.00,,,0.00,TxWx,2013-02-09 03:14:00,
2013-02-08 22:16:00,75.2,68.0,30.04,SE,141,5.6,5.6,79,0.00,,,0.00,TxWx,2013-02-09 03:16:00,
2013-02-08 22:17:00,75.1,68.0,30.04,East,96,5.0,5.0,79,0.00,,,0.00,TxWx,2013-02-09 03:17:00,
2013-02-08 22:19:00,75.2,68.0,30.04,SE,141,4.3,5.0,79,0.00,,,0.00,TxWx,2013-02-09 03:19:00,
2013-02-08 22:20:00,75.0,68.0,30.04,SE,141,4.3,5.0,79,0.00,,,0.00,TxWx,2013-02-09 03:20:00,
2013-02-08 22:21:00,75.1,68.0,30.04,ESE,118,3.7,4.3,79,0.00,,,0.00,TxWx,2013-02-09 03:21:00,
2013-02-08 22:22:00,75.2,68.0,30.04,SE,141,5.0,5.0,79,0.00,,,0.00,TxWx,2013-02-09 03:22:00,
2013-02-08 22:26:00,75.0,68.0,30.04,SE,141,5.0,5.0,79,0.00,,,0.00,TxWx,2013-02-09 03:26:00,
2013-02-08 22:27:00,75.0,68.0,30.04,SE,141,4.3,5.0,79,0.00,,,0.00,TxWx,2013-02-09 03:27:00,
2013-02-08 22:29:00,75.0,68.0,30.04,ESE,118,5.0,5.0,79,0.00,,,0.00,TxWx,2013-02-09 03:29:00,
2013-02-08 22:32:00,74.9,68.0,30.04,ESE,118,3.7,5.0,79,0.00,,,0.00,TxWx,2013-02-09 03:32:00,
2013-02-08 22:33:00,75.0,68.0,30.04,ESE,118,5.0,5.0,79,0.00,,,0.00,TxWx,2013-02-09 03:33:00,
2013-02-08 22:37:00,75.0,68.0,30.04,ESE,118,5.0,5.6,79,0.00,,,0.00,TxWx,2013-02-09 03:37:00,
2013-02-08 22:38:00,74.9,68.0,30.04,SE,141,5.6,5.6,79,0.00,,,0.00,TxWx,2013-02-09 03:38:00,
2013-02-08 22:39:00,74.9,68.0,30.04,ESE,118,5.6,5.6,79,0.00,,,0.00,TxWx,2013-02-09 03:39:00,
2013-02-08 22:43:00,74.9,68.0,30.04,ESE,118,5.6,5.6,79,0.00,,,0.00,TxWx,2013-02-09 03:43:00,
2013-02-08 22:44:00,75.0,68.0,30.04,East,96,4.3,5.0,79,0.00,,,0.00,TxWx,2013-02-09 03:44:00,
2013-02-08 22:45:00,75.0,68.0,30.04,East,96,4.3,4.3,79,0.00,,,0.00,TxWx,2013-02-09 03:45:00,
2013-02-08 22:46:00,75.0,68.0,30.04,East,96,6.2,6.2,79,0.00,,,0.00,TxWx,2013-02-09 03:46:00,
2013-02-08 22:48:00,75.1,68.0,30.04,ESE,118,5.0,5.6,80,0.00,,,0.00,TxWx,2013-02-09 03:48:00,
2013-02-08 22:49:00,75.2,68.0,30.04,East,96,3.7,4.3,80,0.00,,,0.00,TxWx,2013-02-09 03:49:00,
2013-02-08 22:51:00,74.8,68.0,30.04,East,96,6.8,6.8,79,0.00,,,0.00,TxWx,2013-02-09 03:51:00,
2013-02-08 22:54:00,75.0,68.0,30.04,East,96,6.2,6.8,79,0.00,,,0.00,TxWx,2013-02-09 03:54:00,
2013-02-08 22:56:00,75.0,68.0,30.05,ESE,118,5.0,6.2,79,0.00,,,0.00,TxWx,2013-02-09 03:56:00,
2013-02-08 22:57:00,75.1,68.0,30.04,East,96,5.0,5.0,79,0.00,,,0.00,TxWx,2013-02-09 03:57:00,
2013-02-08 23:00:00,75.1,68.0,30.05,ESE,118,3.7,3.7,79,0.00,,,0.00,TxWx,2013-02-09 04:00:00,
2013-02-08 23:01:00,75.1,68.0,30.05,East,96,3.7,5.0,79,0.00,,,0.00,TxWx,2013-02-09 04:01:00,
2013-02-08 23:02:00,75.0,68.0,30.05,ESE,118,3.7,3.7,79,0.00,,,0.00,TxWx,2013-02-09 04:02:00,
2013-02-08 23:03:00,75.0,68.0,30.05,SE,141,3.7,3.7,79,0.00,,,0.00,TxWx,2013-02-09 04:03:00,
2013-02-08 23:06:00,75.0,68.0,30.05,SE,141,4.3,5.0,78,0.00,,,0.00,TxWx,2013-02-09 04:06:00,
2013-02-08 23:08:00,75.0,68.0,30.05,ESE,118,3.7,4.3,78,0.00,,,0.00,TxWx,2013-02-09 04:08:00,
2013-02-08 23:09:00,75.0,68.0,30.05,ESE,118,3.1,4.3,78,0.00,,,0.00,TxWx,2013-02-09 04:09:00,
2013-02-08 23:11:00,75.1,68.0,30.05,East,96,3.7,4.3,78,0.00,,,0.00,TxWx,2013-02-09 04:11:00,
2013-02-08 23:12:00,75.1,68.0,30.05,East,96,5.0,5.0,78,0.00,,,0.00,TxWx,2013-02-09 04:12:00,
2013-02-08 23:14:00,75.2,68.0,30.05,SE,141,3.7,5.0,78,0.00,,,0.00,TxWx,2013-02-09 04:14:00,
2013-02-08 23:15:00,75.3,68.0,30.05,ESE,118,3.7,4.3,78,0.00,,,0.00,TxWx,2013-02-09 04:15:00,
2013-02-08 23:17:00,75.4,68.0,30.05,East,96,4.3,4.3,78,0.00,,,0.00,TxWx,2013-02-09 04:17:00,
2013-02-08 23:19:00,75.3,68.0,30.05,East,96,5.0,5.0,79,0.00,,,0.00,TxWx,2013-02-09 04:19:00,
2013-02-08 23:21:00,75.1,68.0,30.05,ESE,118,3.7,4.3,78,0.00,,,0.00,TxWx,2013-02-09 04:21:00,
2013-02-08 23:25:00,75.0,68.0,30.05,West,276,1.2,1.2,78,0.00,,,0.00,TxWx,2013-02-09 04:25:00,
2013-02-08 23:26:00,74.7,67.0,30.05,WSW,253,1.2,1.9,78,0.00,,,0.00,TxWx,2013-02-09 04:26:00,
2013-02-08 23:30:00,73.2,66.0,30.06,WSW,253,1.9,2.5,78,0.00,,,0.00,TxWx,2013-02-09 04:30:00,
2013-02-08 23:31:00,73.1,66.0,30.06,West,276,2.5,2.5,78,0.00,,,0.00,TxWx,2013-02-09 04:31:00,
2013-02-08 23:32:00,72.9,66.0,30.06,NW,321,3.1,3.1,78,0.00,,,0.00,TxWx,2013-02-09 04:32:00,
2013-02-08 23:36:00,72.0,66.0,30.06,WNW,298,4.3,5.6,81,0.00,,,0.00,TxWx,2013-02-09 04:36:00,
2013-02-08 23:37:00,72.0,66.0,30.06,WNW,298,3.7,3.7,82,0.00,,,0.00,TxWx,2013-02-09 04:37:00,
2013-02-08 23:41:00,71.9,67.0,30.06,WNW,298,1.9,1.9,83,0.00,,,0.00,TxWx,2013-02-09 04:41:00,
2013-02-08 23:42:00,71.9,67.0,30.06,WNW,298,1.9,1.9,83,0.00,,,0.00,TxWx,2013-02-09 04:42:00,
2013-02-08 23:47:00,71.8,67.0,30.05,West,276,1.9,1.9,84,0.00,,,0.00,TxWx,2013-02-09 04:47:00,
2013-02-08 23:48:00,71.8,67.0,30.06,West,276,0.6,1.2,84,0.00,,,0.00,TxWx,2013-02-09 04:48:00,
2013-02-08 23:49:00,71.8,67.0,30.06,WNW,298,1.9,1.9,84,0.00,,,0.00,TxWx,2013-02-09 04:49:00,
2013-02-08 23:53:00,71.8,67.0,30.06,NW,321,2.5,3.1,84,0.00,,,0.00,TxWx,2013-02-09 04:53:00,
2013-02-08 23:54:00,71.8,67.0,30.06,WNW,298,3.1,3.1,84,0.00,,,0.00,TxWx,2013-02-09 04:54:00,
2013-02-08 23:59:00,71.6,67.0,30.06,WNW,298,3.1,3.7,84,0.00,,,0.00,TxWx,2013-02-09 04:59:00,